La rivière sans fin TELECHARGEMENT GRATUIT
Télécharger Momo
Do upload dupes. It helps us clean and complete our database.

PRE DATA

Datetime Release
2017-04-09 00:01:48 Danmark.Har.Talent.S03E12.Afgoerelsen.DANiSH.720p.HDTV.x264-RCDiVX
2017-04-09 00:04:22 Komisarz.Alex.S09E06.POLISH.720p.HDTV.x264-A4O
2017-04-09 00:09:03 Hawaii.Five-0.2010.S07E03.FRENCH.1080p.HDTV.x264-RyotoX
2017-04-09 00:10:34 Gidseltagningen.S01E03.DIRFIX.DANISH.720p.WEBRip.x264-BALLIN
2017-04-09 00:11:00 F1.2017.Grosser.Preis.von.China.Qualifying.in.Schanghai.German.1080p.HDTV.x264.iNTERNAL-F1ANA
2017-04-09 00:11:04 The.Magicians.US.S02E10.SPANiSH.1080p.HDTV.x264-FERiCE
2017-04-09 00:11:39 The.Magicians.US.S02E10.SPANiSH.720p.HDTV.x264-FERiCE
2017-04-09 00:11:58 The.Magicians.US.S02E10.SPANiSH.HDTV.x264-FERiCE
2017-04-09 00:15:02 La.Extranya.Pareja.2015.S03E09.SPANiSH.1080p.HDTV.x264-FERiCE
2017-04-09 00:15:48 La.Extranya.Pareja.2015.S03E09.SPANiSH.HDTV.x264-FERiCE
2017-04-09 00:19:48 Danmark.Har.Talent.S03E12.DANiSH.HDTV.x264-RCDiVX
2017-04-09 00:20:57 The.Get.Down.S01E09.MULTi.1080p.WEBRip.x264-BRiNK
2017-04-09 00:22:58 Judge.Rinders.Crime.Stories.S02E04.720p.HDTV.x264-QPEL
2017-04-09 00:23:55 Danmark.Har.Talent.S03E12.Afgoerelsen.DANiSH.HDTV.x264-RCDiVX
2017-04-09 00:26:35 All.Round.To.Mrs.Browns.S01E03.720p.HDTV.x264-QPEL
2017-04-09 00:28:19 Formula1.2017.Chinese.Grand.Prix.Teds.Qualifying.Notebook.HDTV.x264-GRiP
2017-04-09 00:29:18 Joeski-Deep_Elements_EP_(Radio_Edits)-(KITT_137)-WEB-2017-BB8
2017-04-09 00:30:00 Dimitri_Vegas_and_Like_Mike_-_Smash_the_House-CABLE-04-08-2017-TALiON
2017-04-09 00:31:01 TLP_-_In_the_Mix_(Studio_Brussel)-CABLE-04-08-2017-TALiON
2017-04-09 00:31:53 Joeski-Champion_Sound-(SP_163)-WEB-2016-BB8
2017-04-09 00:31:55 Forever.US.S01E04.FRENCH.1080p.HDTV.x264-Ryotox
2017-04-09 00:32:01 Faisal_-_Switch_Playground_(Studio_Brussel)-CABLE-04-08-2017-TALiON
2017-04-09 00:33:01 Konna_-_Switch_Playground_(Studio_Brussel)-CABLE-04-08-2017-TALiON
2017-04-09 00:34:00 Charlotte_de_Witte_-_Switch_Playground_(Studio_Brussel)-CABLE-04-08-2017-TALiON
2017-04-09 00:35:07 Forever.US.S01E05.FRENCH.1080p.HDTV.x264-Ryotox
2017-04-09 00:35:17 Formula1.2017.Chinese.Grand.Prix.Teds.Qualifying.Notebook.720p.HDTV.x264-GRiP
2017-04-09 00:35:40 Flashback.S01E05.DANiSH.HDTV.x264-RCDiVX
2017-04-09 00:38:37 Joeski-In_Time_Remixes-(DPL_049)-WEB-2016-BB8
2017-04-09 00:41:28 Joeski-Our_Music-(LOW_048)-WEB-2016-BB8
2017-04-09 00:42:27 Tim_Engelhardt-Nothing_to_Hide-(SUBTRACT_12)-WEB-2016-BB8
2017-04-09 00:42:56 Tim_Engelhardt-Trabant-(GR_22)-WEB-2016-BB8
2017-04-09 00:43:20 Tim_Engelhardt-Vega-(EINMUSIKA_082)-WEB-2016-BB8
2017-04-09 00:44:11 Tom_Flynn-Du_Know_EP-(INORB_004)-WEB-2016-BB8
2017-04-09 00:44:32 Tom_Flynn-Future_EP-(INORB_002)-WEB-2016-BB8
2017-04-09 00:44:58 Tom_Flynn-Marz_EP-(INORB_003)-WEB-2016-BB8
2017-04-09 00:45:22 Tom_Flynn-Presents_Missions_Vol_1_EP-(INORB_001)-WEB-2016-BB8
2017-04-09 00:45:45 Tom_Flynn-Tea_Pig_EP-(INORB_005)-WEB-2016-BB8
2017-04-09 00:56:48 Match.Of.The.Day.2017.04.08.720p.HDTV.x264-FTP
2017-04-09 00:59:00 Los.Simpsons.S14E21.SPANiSH.HR.WS.PDTV.X264-LPH
2017-04-09 00:59:49 Los.Simpsons.S14E22.SPANiSH.HR.WS.PDTV.X264-LPH
2017-04-09 00:59:49 Formula1.2017.Chinese.Grand.Prix.Teds.Qualifying.Notebook.1080p.HDTV.x264-GRiP
2017-04-09 01:02:59 Master.and.Commander.Bis.ans.Ende.der.Welt.2003.German.DL.1080p.BluRay.AVC-SAViOURHD
2017-04-09 01:04:27 The.Proud.Family.S01E03.WEB.h264-QCF
2017-04-09 01:11:50 DJ_Aroma-La_Boum_de_Luxe-SAT-04-07-2017-PTC
2017-04-09 01:12:34 Shed-La_Boum_de_Luxe-SAT-04-07-2017-PTC
2017-04-09 01:13:33 DJ_Odd-La_Boum_de_Luxe-SAT-04-08-2017-PTC
2017-04-09 01:14:36 John_Weltreise-La_Boum_de_Luxe-SAT-04-08-2017-PTC
2017-04-09 01:15:40 Slevin_Flakes_and_Die_Hoehenregler-La_Boum_de_Luxe-SAT-04-08-2017-PTC
2017-04-09 01:16:43 Makossa_and_Sugar_B-Live_at_Pimpernel_Munich-SAT-04-01-2017-PTC
2017-04-09 01:18:26 Daddy_DJ_-_Folder-WEB-2012-iDC
2017-04-09 01:54:49 Expediente.X.S01E09.SPANiSH.HDTV.X264-LPH
2017-04-09 01:56:31 Expediente.X.S01E09.SPANiSH.720p.HDTV.X264-LPH
2017-04-09 02:10:05 Electro_Spectre-Little_Wonder-WEB-2017-AMOK
2017-04-09 02:10:32 The_Past_Made_Us_One-No_Name_Product-Ltd.Ed.-2017-AMOK
2017-04-09 02:22:28 Benji_Candelario_Feat_Lisa_Shaw_-_You_Got_Me_(Remixes)-(826194_354992)-WEB-2017-ZzZz
2017-04-09 02:23:12 Blue.Sky.1994.720p.BluRay.x264-SADPANDA
2017-04-09 02:24:49 Blue.Sky.1994.1080p.BluRay.x264-SADPANDA
2017-04-09 02:24:59 Benson_Feat_Yeo_-_Trying_(Remixes)-(MRR_022R)-WEB-2017-ZzZz
2017-04-09 02:26:34 The.24.Hour.War.2016.720p.BluRay.x264-SADPANDA
2017-04-09 02:26:36 Hawaii.Five-0.2010.S07E04.FRENCH.1080p.HDTV.x264-Ryotox
2017-04-09 02:28:37 The.24.Hour.War.2016.1080p.BluRay.x264-SADPANDA
2017-04-09 02:29:08 Blue.Sky.1994.COMPLETE.BLURAY-watchHD
2017-04-09 02:29:11 The.24.Hour.War.2016.COMPLETE.BLURAY-watchHD
2017-04-09 02:32:24 Forever.US.S01E06.FRENCH.1080p.HDTV.x264-Ryotox
2017-04-09 02:33:13 Mootzoid.emTopolizer2.v2.381.for.Softimage.2012-AMPED
2017-04-09 02:33:23 Mootzoid.emTopolizer2.v2.381.for.Softimage.2012.LINUX-AMPED
2017-04-09 02:33:32 Mootzoid.emTopolizer2.v2.381.for.Softimage.2013-AMPED
2017-04-09 02:33:38 Mootzoid.emTopolizer2.v2.381.for.Softimage.2013.LINUX-AMPED
2017-04-09 02:33:45 Mootzoid.emTopolizer2.v2.381.for.Softimage.2014-AMPED
2017-04-09 02:33:52 Mootzoid.emTopolizer2.v2.381.for.Softimage.2014.LINUX-AMPED
2017-04-09 02:33:58 Mootzoid.emTopolizer2.v2.381.for.Softimage.2015-AMPED
2017-04-09 02:34:05 Mootzoid.emTopolizer2.v2.381.for.Softimage.2015.LINUX-AMPED
2017-04-09 02:41:31 Manhunter.1986.COMPLETE.BLURAY-BRDC
2017-04-09 02:53:18 AUTODESK.ALIAS.DESIGN.V2018.WIN64-ISO
2017-04-09 02:55:39 AUTODESK.ALIAS.SPEEDFORM.V2018.WIN64-ISO
2017-04-09 02:56:17 Bob_Cruise_-_Complete_(2007_-_2016)_(Album)-(426017_4931418)-WEB-2017-ZzZz
2017-04-09 02:57:58 AUTODESK.ALIAS.SURFACE.V2018.WIN64-ISO
2017-04-09 03:04:32 Ransom.S01E12.720p.HDTV.x264-KILLERS
2017-04-09 03:05:45 Ransom.S01E12.HDTV.x264-KILLERS
2017-04-09 03:15:09 Chopped.S09E07.Everythings.Rosy.720p.HDTV.x264-W4F
2017-04-09 03:15:48 Chopped.S09E07.Everythings.Rosy.HDTV.x264-W4F
2017-04-09 03:16:22 Chopped.S16E12.Extreme.Halloween.720p.HDTV.x264-W4F
2017-04-09 03:16:59 Chopped.S16E12.Extreme.Halloween.HDTV.x264-W4F
2017-04-09 03:17:09 Booyah_Riot_-_2AM-(505496_0276406)-WEB-2017-ZzZz
2017-04-09 03:17:24 Brueshko_-_Me_My_and_Mine_EP-(GERT_0285)-WEB-2017-ZzZz
2017-04-09 03:17:34 Chopped.S16E13.A.Chopped.Thanksgiving.720p.HDTV.x264-W4F
2017-04-09 03:17:43 Cvdb_Feat_Shy_-_Helium_(Cvdb_Rmx)-(361497_4712073)-WEB-2017-ZzZz
2017-04-09 03:17:59 VA_-_M14M1_2017-(763004_7103971)-WEB-2017-ZzZz
2017-04-09 03:18:10 Chopped.S16E13.A.Chopped.Thanksgiving.HDTV.x264-W4F
2017-04-09 03:18:57 Chopped.S17E01.Wasted.720p.HDTV.x264-W4F
2017-04-09 03:19:34 Chopped.S17E01.Wasted.HDTV.x264-W4F
2017-04-09 03:20:09 Chopped.S17E02.Keep.on.Trucking.720p.HDTV.x264-W4F
2017-04-09 03:20:42 Chopped.S17E02.Keep.on.Trucking.HDTV.x264-W4F
2017-04-09 03:21:22 Chopped.S17E03.Sports.Stars.720p.HDTV.x264-W4F
2017-04-09 03:22:09 Chopped.S17E03.Sports.Stars.HDTV.x264-W4F
2017-04-09 03:23:08 Chopped.S17E04.Hero.Chefs.720p.HDTV.x264-W4F
2017-04-09 03:23:52 Chopped.S17E04.Hero.Chefs.HDTV.x264-W4F
2017-04-09 03:24:25 Chopped.S17E05.We.Love.Leftovers.720p.HDTV.x264-W4F
2017-04-09 03:25:03 Chopped.S17E05.We.Love.Leftovers.HDTV.x264-W4F
2017-04-09 03:25:50 Chopped.S17E06.Count.Your.Chickens.720p.HDTV.x264-W4F
2017-04-09 03:26:27 Chopped.S17E06.Count.Your.Chickens.HDTV.x264-W4F
2017-04-09 03:26:59 Chopped.S17E08.Brunch.Boxes.720p.HDTV.x264-W4F
2017-04-09 03:27:29 Rosehaven.S01E05.PROPER.DVDRip.x264-PFa
2017-04-09 03:27:37 Chopped.S17E08.Brunch.Boxes.HDTV.x264-W4F
2017-04-09 03:28:01 Rosehaven.S01E06.PROPER.DVDRip.x264-PFa
2017-04-09 03:28:21 Chopped.S17E09.Circus.Spectacular.720p.HDTV.x264-W4F
2017-04-09 03:28:27 Rosehaven.S01E07.PROPER.DVDRip.x264-PFa
2017-04-09 03:28:56 Chopped.S17E09.Circus.Spectacular.HDTV.x264-W4F
2017-04-09 03:29:40 Chopped.S17E10.Competition.Italiano.720p.HDTV.x264-W4F
2017-04-09 03:30:23 Ladies_Of_Soul-Live_At_The_Ziggodome_2017-WEB-2017-AZF
2017-04-09 03:30:42 Chopped.S17E10.Competition.Italiano.HDTV.x264-W4F
2017-04-09 03:31:26 Chopped.S17E13.Celebrity.Holiday.Bash.720p.HDTV.x264-W4F
2017-04-09 03:31:37 Rosehaven.S01E08.PROPER.DVDRip.x264-PFa
2017-04-09 03:32:12 Chopped.S17E13.Celebrity.Holiday.Bash.HDTV.x264-W4F
2017-04-09 03:32:50 Chopped.S33E02.Star.Power.Web.Stars.720p.HDTV.x264-W4F
2017-04-09 03:33:29 Chopped.S33E02.Star.Power.Web.Stars.HDTV.x264-W4F
2017-04-09 03:34:03 Chopped.S33E03.Star.Power.Culinary.Muscle.720p.HDTV.x264-W4F
2017-04-09 03:34:50 Chopped.S33E03.Star.Power.Culinary.Muscle.HDTV.x264-W4F
2017-04-09 03:54:03 Training.Day.S01E07.720p.HDTV.X264-DIMENSION
2017-04-09 03:55:02 Training.Day.S01E07.HDTV.x264-LOL
2017-04-09 04:05:46 The.Son.S01E01.720p.HDTV.x264-AVS
2017-04-09 04:06:18 The.Son.S01E01.HDTV.x264-SVA
2017-04-09 04:06:41 Dragon.Ball.Super.E85.1080p.WEB.x264-ANiURL
2017-04-09 04:08:14 Dragon.Ball.Super.E85.720p.WEB.x264-ANiURL
2017-04-09 04:09:07 Boomhead-Boomheads_Darkness-WEB-CPOP-2017-TosK
2017-04-09 04:09:27 Dragon.Ball.Super.S01E13.DUBBED.HDTV.x264-W4F
2017-04-09 04:09:46 Dragon.Ball.Super.E85.WEB.x264-ANiURL
2017-04-09 04:10:04 Dragon.Ball.Super.S01E13.DUBBED.720p.HDTV.x264-W4F
2017-04-09 04:15:07 Chopped.S33E01.Best.Laid.Pans.iNTERNAL.HDTV.x264-W4F
2017-04-09 04:15:40 Chopped.S33E01.Best.Laid.Pans.iNTERNAL.720p.HDTV.x264-W4F
2017-04-09 04:17:35 Formula1.2017.Chinese.Grand.Prix.Practice.Three.1080p.HDTV.x264-GRiP
2017-04-09 04:18:52 Counting.Cars.S07E01.REAL.HDTV.x264-KILLERS
2017-04-09 04:18:53 Counting.Cars.S07E01.REAL.720p.HDTV.x264-KILLERS
2017-04-09 04:19:02 Counting.Cars.S07E02.REAL.HDTV.x264-KILLERS
2017-04-09 04:19:12 Sun.Records.S01E07.PROPER.720p.HDTV.x264-KILLERS
2017-04-09 04:19:14 Counting.Cars.S07E02.REAL.720p.HDTV.x264-KILLERS
2017-04-09 04:19:15 Sun.Records.S01E07.PROPER.HDTV.x264-KILLERS
2017-04-09 04:22:31 Ghost.Adventures.S14E03.Samaritan.Cult.House.iNTERNAL.720p.HDTV.x264-DHD
2017-04-09 04:32:14 VA-Capo_Verde_Terra_Damore_Vol_5_(Mjcd1279)-2014-DGN
2017-04-09 04:36:35 VA-Deep_Design_Seven-(TODR014)-WEB-2017-YOU
2017-04-09 04:38:35 VA-Miami_2017_By_David_Hoffmann-(10118442)-WEB-2017-YOU
2017-04-09 04:43:59 DadCrush.17.04.09.Bailey.Brooke.XXX.1080p.MP4-KTR
2017-04-09 04:44:55 KarupsHA.17.04.07.Carolina.Sweets.Solo.4.XXX.720p.MP4-KTR
2017-04-09 04:45:51 KarupsHA.17.04.07.Lucie.Cline.Solo.3.XXX.720p.MP4-KTR
2017-04-09 04:46:47 KarupsHA.17.04.08.Alex.Blake.Solo.4.XXX.720p.MP4-KTR
2017-04-09 04:47:46 KarupsOW.17.04.07.Ania.Kinski.Solo.3.XXX.720p.MP4-KTR
2017-04-09 04:48:44 KarupsOW.17.04.07.Mikki.Lynn.Solo.4.XXX.720p.MP4-KTR
2017-04-09 04:49:45 The_Ventures-The_Very_Best_Of_The_Ventures-CD-FLAC-1992-FLACME
2017-04-09 04:49:48 KarupsOW.17.04.08.Beth.Bennett.Solo.3.XXX.720p.MP4-KTR
2017-04-09 04:50:53 KarupsOW.17.04.08.Kim.Kelly.Solo.3.XXX.720p.MP4-KTR
2017-04-09 04:52:59 KarupsPC.17.04.07.Jem.Stone.Solo.4.XXX.720p.MP4-KTR
2017-04-09 04:54:00 KarupsPC.17.04.07.Kristy.Black.Solo.5.XXX.720p.MP4-KTR
2017-04-09 04:54:58 KarupsPC.17.04.08.Carla.Cruz.Solo.5.XXX.720p.MP4-KTR
2017-04-09 04:56:37 KellyMadison.17.04.07.Taking.It.Off.XXX.1080p.MP4-KTR
2017-04-09 04:57:41 MeloneChallenge.17.04.08.Wendy.Moon.Camera.Shy.Newbie.Strikes.Out.XXX.1080p.MP4-KTR
2017-04-09 04:58:51 PornMegaLoad.17.04.08.Giaoni.Whiley.Juicy.Georgia.Peach.XXX.1080p.MP4-KTR
2017-04-09 05:00:10 PornMegaLoad.17.04.08.Vanessa.Y.The.Busty.Hitcher.Who.Came.In.From.The.Cold.XXX.1080p.MP4-KTR
2017-04-09 05:01:14 TwistysHard.17.04.09.Valentina.Nappi.Forza.Valentina.XXX.1080p.MP4-KTR
2017-04-09 05:03:10 InterracialBlowbang.17.04.06.Gina.Valentina.XXX.1080p.MP4-KTR
2017-04-09 05:03:49 MotoGP.2017.Argentina.Qualifying.HDTV.x264-GRiP
2017-04-09 05:05:14 ZebraGirls.17.04.08.Julia.Ann.Honey.Gold.And.Jenna.Foxx.XXX.1080p.MP4-KTR
2017-04-09 05:06:19 MotoGP.2017.Argentina.Qualifying.720p.HDTV.x264-GRiP
2017-04-09 05:07:37 The.Son.S01E02.720p.HDTV.x264-FLEET
2017-04-09 05:08:54 The.Son.S01E02.HDTV.x264-FLEET
2017-04-09 05:10:10 FemJoy.com_17.04.08.Joanna.Femjoy.Exclusive.Model.XXX.IMAGESET-FuGLi
2017-04-09 05:12:04 FemJoy.com_17.04.08.Vika.A.The.Nude.Beach.XXX.IMAGESET-FuGLi
2017-04-09 05:12:09 Road.Hauks.S01E01.720p.HDTV.x264-KILLERS
2017-04-09 05:12:49 Road.Hauks.S01E01.HDTV.x264-KILLERS
2017-04-09 05:17:44 UFC.210.Preliminary.Fights.720p.HDTV.x264-KYR
2017-04-09 05:26:33 EuroGirlsOnGirls.17.04.09.Amirah.And.Angel.Rivas.XXX.1080p.MP4-KTR
2017-04-09 05:27:27 UFC.210.Preliminary.Fights.HDTV.x264-PLUTONiUM
2017-04-09 05:30:13 The.Get.Down.S01E10.FRENCH.720p.WEBRip.x264-BRiNK
2017-04-09 05:31:29 The.Get.Down.S01E10.MULTi.1080p.WEBRip.x264-BRiNK
2017-04-09 05:33:47 AbbyWinters.17.04.08.Alexandra.And.Hania.Lesbian.XXX.1080p.MP4-KTR
2017-04-09 06:02:06 OfficeObsession.17.04.09.Sasha.Rose.Quite.The.Package.XXX.1080p.MP4-KTR
2017-04-09 06:03:34 21Naturals.17.04.09.Violette.Pure.Early.Morning.Love.Making.XXX.1080p.MP4-KTR
2017-04-09 06:04:26 Animals.S02E04.720p.HDTV.x264-FLEET
2017-04-09 06:04:56 Animals.S02E04.HDTV.x264-FLEET
2017-04-09 06:05:17 BigTitsAtWork.17.04.09.Jasmine.Webb.Interview.With.A.Busty.Boss.XXX.1080p.MP4-KTR
2017-04-09 06:07:05 BrazzersExxtra.17.04.09.Jade.Amber.Jade.Screams.For.Ice.Cream.XXX.1080p.MP4-KTR
2017-04-09 06:08:22 ClubSandy.17.04.09.Gina.Valentina.Do.I.Have.The.Right.Place.XXX.1080p.MP4-KTR
2017-04-09 06:10:16 EbonySexTapes.17.04.09.Amethyst.Banks.Big.Booty.Wins.March.Madness.XXX.1080p.MP4-KTR
2017-04-09 06:12:41 Vancouver_Sleep_Clinic-Revival-WEB-2017-TosK
2017-04-09 06:20:36 Cosmid.17.04.09.Scarlett.Jo.XXX.1080p.MP4-KTR
2017-04-09 06:23:24 CumForCover.17.04.09.Anya.Krey.XXX.1080p.MP4-KTR
2017-04-09 06:24:42 DogHouseDigital.Anal.Virgins.3.Bonus.XXX.720p.MP4-KTR
2017-04-09 06:25:51 DogHouseDigital.Anal.Virgins.3.Bonus.XXX.1080p.MP4-KTR
2017-04-09 06:31:45 Powerless.S01E07.REAL.720p.HDTV.x264-BATV
2017-04-09 06:31:47 Powerless.S01E07.REAL.HDTV.x264-BATV
2017-04-09 06:36:57 Samurai.Jack.S05E04.720p.HDTV.x264-W4F
2017-04-09 06:37:23 Samurai.Jack.S05E04.HDTV.x264-W4F
2017-04-09 06:42:11 Mutant.X.S03E02.720p.BluRay.X264-Japhson
2017-04-09 06:54:01 Mutant.X.S03E03.720p.BluRay.X264-Japhson
2017-04-09 06:54:14 Mutant.X.S03E04.720p.BluRay.X264-Japhson
2017-04-09 06:54:29 Mutant.X.S03E05.720p.BluRay.X264-Japhson
2017-04-09 06:55:01 Rebel_And_A_Basketcase-Today_(The_Tonight_Show_2017-03-13)-720p-x264-2017-SRP
2017-04-09 06:55:27 Dragon.Ball.Super.S01E13.DUBBED.1080p.HDTV.x264-W4F
2017-04-09 06:55:33 Il.Corriere.Della.Sera.04.09.2017.iTALiAN.RETAiL.eBook-DiVER
2017-04-09 06:57:10 Expedition.Unknown.S03E14.Corsicas.Nazi.Treasure.720p.HDTV.x264-W4F
2017-04-09 07:00:13 Expedition.Unknown.S03E14.Corsicas.Nazi.Treasure.HDTV.x264-W4F
2017-04-09 07:00:52 60.Minutes.Sports.S05E03.720p.HDTV.x264-W4F
2017-04-09 07:01:25 ATKExotics.17.04.09.Nicole.Toys.XXX.1080p.MP4-KTR
2017-04-09 07:01:44 60.Minutes.Sports.S05E03.HDTV.x264-W4F
2017-04-09 07:02:28 Training.Day.S01E07.1080p.HDTV.X264-DIMENSION
2017-04-09 07:02:54 Mickey.and.the.Roadster.Racers.S01E11.720p.HDTV.x264-W4F
2017-04-09 07:02:59 ATKGirlfriends.17.04.09.Nina.Nirvana.XXX.1080p.MP4-KTR
2017-04-09 07:04:52 ATKGirlfriends.17.04.09.Nina.Nirvana.XXX.2160p.MP4-KTR
2017-04-09 07:05:57 ATKHairy.17.04.09.Katalina.Masturbation.XXX.1080p.MP4-KTR
2017-04-09 07:07:08 PlayboyPlus.17.04.09.Mashup.Asian.Sensation.Vol.2.XXX.1080p.MP4-KTR
2017-04-09 07:08:24 NASCAR.Xfinity.Series.2017.04.08.Texas-My.Bariatric.Solutions.300.720p.HDTV.x264-DHD
2017-04-09 07:12:49 The_Weeknd-Party_Monster-1080p-x264-2017-SRPx
2017-04-09 07:13:08 Tinashe-Company-1080p-x264-2017-SRPx
2017-04-09 07:13:31 VA_-_Super_Dance_Mix_Vol_7-BOOTLEG-WEB-2017-ZzZz_INT
2017-04-09 07:13:40 Train-Cadillac_Cadillac-1080p-x264-2014-SRPx
2017-04-09 07:16:03 The.Get.Down.S01E11.FiNAL.FRENCH.720p.WEBRip.x264-BRiNK
2017-04-09 07:16:12 Mickey.and.the.Roadster.Racers.S01E11.HDTV.x264-W4F
2017-04-09 07:20:40 WildOnCam.17.03.28.Carmen.Caliente.XXX.1080p.MP4-KTR
2017-04-09 07:21:22 Trygdekontoret.S12E08.NORWEGiAN.720p.HDTV.x264-TvNORGE
2017-04-09 07:21:33 VA_-_Hands_Up_Crazy_Vol_16_(Mixed_By_Djane_Blueeyes_and_Dan_Winter)-BOOTLEG-WEB-2017-ZzZz_INT
2017-04-09 07:23:01 Best.Foer.S01E05.NORWEGiAN.720p.HDTV.x264-TvNORGE
2017-04-09 07:23:07 Chopped.S18E01.No.Pain.No.Shame.720p.HDTV.x264-W4F
2017-04-09 07:23:16 WildOnCam.17.03.29.Natalia.Starr.XXX.1080p.MP4-KTR
2017-04-09 07:23:44 Chopped.S18E01.No.Pain.No.Shame.HDTV.x264-W4F
2017-04-09 07:24:13 Chopped.S18E02.Teen.Talent.iNTERNAL.720p.HDTV.x264-W4F
2017-04-09 07:24:46 Chopped.S18E02.Teen.Talent.iNTERNAL.HDTV.x264-W4F
2017-04-09 07:25:26 Chopped.S18E03.Tapas.Time.REAL.720p.HDTV.x264-W4F
2017-04-09 07:25:59 WildOnCam.17.03.30.Alana.Cruise.XXX.1080p.MP4-KTR
2017-04-09 07:26:16 Heltenes.Kamp.Norge.Mot.Sverige.S01E01E02.ts.NORWEGiAN.720p.HDTV.x264-TvNORGE
2017-04-09 07:26:52 Chopped.S18E03.Tapas.Time.REAL.HDTV.x264-W4F
2017-04-09 07:27:53 Chopped.S18E06.Hoofin.It.720p.HDTV.x264-W4F
2017-04-09 07:27:59 Marcus.Og.Martinus.S01E03.NORWEGiAN.720p.HDTV.x264-TvNORGE
2017-04-09 07:28:25 Chopped.S18E06.Hoofin.It.HDTV.x264-W4F
2017-04-09 07:28:38 WildOnCam.17.03.31.Liza.Rowe.And.Niki.Snow.XXX.1080p.MP4-KTR
2017-04-09 07:28:40 OSL.24-7.S01E18.NORWEGiAN.720p.HDTV.x264-TvNORGE
2017-04-09 07:29:06 Chopped.S18E08.All-Burger.Meal.720p.HDTV.x264-W4F
2017-04-09 07:29:43 Chopped.S18E08.All-Burger.Meal.HDTV.x264-W4F
2017-04-09 07:30:17 Chopped.S18E09.Chocolate.Competition.iNTERNAL.720p.HDTV.x264-W4F
2017-04-09 07:31:03 Chopped.S18E09.Chocolate.Competition.iNTERNAL.HDTV.x264-W4F
2017-04-09 07:31:27 WildOnCam.17.04.03.Gabriella.Paltrova.And.Missy.Martinez.XXX.1080p.MP4-KTR
2017-04-09 07:31:41 Chopped.S18E10.Bacon.Baskets.iNTERNAL.720p.HDTV.x264-W4F
2017-04-09 07:32:37 Chopped.S18E10.Bacon.Baskets.iNTERNAL.HDTV.x264-W4F
2017-04-09 07:33:22 Chopped.S18E11.Beer.Here.720p.HDTV.x264-W4F
2017-04-09 07:33:59 Chopped.S18E11.Beer.Here.HDTV.x264-W4F
2017-04-09 07:34:12 VA_-_Hands_Up_Shots_2_(Explicit)-(10112963)-WEB-2016-ZzZz
2017-04-09 07:38:33 La.Gazzetta.Dello.Sport.04.09.2017.iTALiAN.RETAiL.eBook-DiVER
2017-04-09 07:57:22 UFC.210.720p.HDTV.x264-VERUM
2017-04-09 08:02:12 L.Equipe.09.Avril.2017.FRENCH.RETAIL.eBook-PRESSECiTRON
2017-04-09 08:02:40 Le.Journal.du.Dimanche.N3665.FRENCH.RETAIL.eBook-PRESSECiTRON
2017-04-09 08:03:09 Le.Parisien.09.avril.2017.FRENCH.RETAIL.eBook-PRESSECiTRON
2017-04-09 08:10:31 IndustryInvaders.17.03.16.Desiree.Deluca.XXX.1080p.MP4-KTR
2017-04-09 08:11:33 AllFineGirls.17.04.08.Milla.Azul.Interview.XXX.1080p.MP4-KTR
2017-04-09 08:12:31 Tom_Flynn-Womp_EP-(VIVA_129)-WEB-2016-BB8
2017-04-09 08:12:48 AllFineGirls.17.04.08.Milla.Azul.Interview.XXX.2160p.MP4-KTR
2017-04-09 08:14:00 WowGirls.17.04.09.Cayla.Maria.Pie.And.Ulia.Love.Feast.XXX.1080p.MP4-KTR
2017-04-09 08:16:21 WowGirls.17.04.09.Cayla.Maria.Pie.And.Ulia.Love.Feast.XXX.2160p.MP4-KTR
2017-04-09 08:18:17 Animal_Picnic-Lobster_37-(ASM_049)-WEB-2013-BB8
2017-04-09 08:18:33 DR2.Tema.Tarm.Loerdag.Paa.Tur.I.Tarmen.DANiSH.PDTV.x264-SKANK
2017-04-09 08:20:26 Animal_Picnic-Personal_Affair_EP-(SLEAZY_028)-WEB-2013-BB8
2017-04-09 08:22:02 Animal_Picnic-She_Is-(027)-WEB-2013-BB8
2017-04-09 08:23:20 Arjun_Vagale-Wombat-(KDM_025)-WEB-2013-BB8
2017-04-09 08:24:04 Sanys-Control_Freak__Event_Horizon-(DF_01)-WEB-2013-BB8
2017-04-09 08:27:06 Sanys-Daily_Situation-(DF_02)-WEB-2013-BB8
2017-04-09 08:28:51 Sanys-Deadly_Poison-(DF_04)-WEB-2013-BB8
2017-04-09 08:32:20 Snuff_Crew-Work_It_Out-(BPC_274EP)-WEB-2013-BB8
2017-04-09 08:33:46 DR2.Tema.Tarm.Loerdag.Helt.Ind.I.Maven.DANiSH.PDTV.x264-SKANK
2017-04-09 08:35:47 VA-Darkroom_Dubs_Vol3-Compiled_And_Mixed_By_Silicone_Soul-(DRDCD_006X)-WEB-2013-BB8
2017-04-09 08:39:03 VA-Steyoyoke_Anniversary_Vol_1-(SYYK_008)-WEB-2013-BB8
2017-04-09 08:41:27 Toasty-Metal-(CR001)-Vinyl-2017-DPS
2017-04-09 08:41:46 Ryan_James_Ford-Stone_Mountain_Red-(SHUT001)-Vinyl-2016-DPS
2017-04-09 08:42:05 Ryan_James_Ford-Firepark-(SHUT002)-Vinyl-2017-DPS
2017-04-09 08:42:06 Ryan_James_Ford-Stone_Mountain_Red
2017-04-09 08:42:54 Ryan_James_Ford-Firepark
2017-04-09 08:45:42 DR2.Tema.Tarm.Loerdag.Den.Fabelagtige.Historie.Om.Lort.DANiSH.PDTV.x264-SKANK
2017-04-09 08:47:18 German_TOP100_Single_Charts_10_04_2017-MCG
2017-04-09 08:47:21 German_TOP20_BC_03_04_2017-MCG
2017-04-09 08:47:23 US_TOP20_Single_Charts_15_04_2017-MCG
2017-04-09 08:48:08 House.Party.1990.GERMAN.DL.COMPLETE.PAL.DVDR-iNViTE
2017-04-09 08:53:28 Red_Snapper-Prince_Blimey_(Expanded_Version)-BONUS_TRACKS-(WARPCDD45X)-WEB-1996-MOHAWK
2017-04-09 08:59:34 Fodbold.Alka.Superliga.Gruppespillet.2017.04.08.Aab.vs.Viborg.FF.DANiSH.HDTV.x264-SKANK
2017-04-09 09:06:31 MetArt.com_17.04.09.Berenice.Reale.XXX.iMAGESET-P4L
2017-04-09 09:07:54 MetArt.17.04.09.Candice.Luka.Play.With.Me.XXX.1080p.MP4-KTR
2017-04-09 09:09:09 TheLifeErotic.17.04.09.Luna.C.Honeymoon.XXX.1080p.MP4-KTR
2017-04-09 09:09:46 MetArt.com_17.04.09.Cordoba.Cantrea.XXX.iMAGESET-P4L
2017-04-09 09:09:53 Fodbold.Alka.Superliga.Gruppespillet.2017.04.08.Aab.vs.Viborg.FF.DANiSH.720p.HDTV.x264-SKANK
2017-04-09 09:10:25 SexArt.17.04.09.Emma.Button.Coquendam.XXX.1080p.MP4-KTR
2017-04-09 09:11:58 TheWhiteBoxxx.17.04.09.Nancy.A.XXX.1080p.MP4-KTR
2017-04-09 09:12:17 MetArt.com_17.04.09.Janelle.B.Ynabae.XXX.iMAGESET-P4L
2017-04-09 09:14:16 IHaveAWife.17.04.09.Whitney.Wright.XXX.1080p.MP4-KTR
2017-04-09 09:18:06 Youtubers.Life.Update.v1.0.4-PLAZA
2017-04-09 09:19:21 Little.Women.Atlanta.S03E14.Not.So.Little.Surprises.HDTV.x264-CRiMSON
2017-04-09 09:20:01 Errotica-Archives.17.04.09.Lla.B.Candelight.XXX.1080p.MP4-KTR
2017-04-09 09:21:07 MetArtX.17.04.09.Amelia.Gin.After.Bath.Oil.XXX.1080p.MP4-KTR
2017-04-09 09:21:56 RylskyArt.17.03.22.Astrud.Para.Sempre.XXX.1080p.MP4-KTR
2017-04-09 09:24:30 Anilos.17.04.09.Sofie.Marie.Secret.Fantasy.XXX.1080p.MP4-KTR
2017-04-09 09:25:55 Nubiles.17.04.09.Kali.Renee.Red.Lace.XXX.1080p.MP4-KTR
2017-04-09 09:26:57 Nubiles.17.04.09.Semija.Great.Body.XXX.1080p.MP4-KTR
2017-04-09 09:27:16 My.Stepsister.Squirts.4.XXX.720p.WEBRip.MP4-VSEX
2017-04-09 09:28:13 ALSScan.17.04.09.Ally.Tate.Limber.XXX.1080p.MP4-KTR
2017-04-09 09:29:12 4x4.Iraan.S01E05.EE.720p.WEB.h264-EMX
2017-04-09 09:29:42 ALSScan.17.04.09.Ally.Tate.Limber.XXX.2160p.MP4-KTR
2017-04-09 09:30:57 My.Stepsister.Squirts.4.XXX.1080p.WEBRip.MP4-VSEX
2017-04-09 09:31:05 Onne.13.S24E29.EE.720p.HDTV.x264-EMX
2017-04-09 09:31:27 BumsBuero.17.04.09.Celina.Davis.GERMAN.XXX.1080p.MP4-KTR
2017-04-09 09:33:08 FuckedInTraffic.17.04.09.Killa.Raketa.XXX.1080p.MP4-KTR
2017-04-09 09:34:23 Fishing.Impossible.S01E08.720p.HDTV.x264-XME
2017-04-09 09:35:55 IHaveAWife.17.04.09.Whitney.Wright.XXX.2160p.MP4-KTR
2017-04-09 09:37:05 Calibre-Grow_Lost_Strange_Are_the_Days-(TNS022)-Vinyl-2017-DPS
2017-04-09 09:37:11 Dont_DJ-Musique_Acephale-(BH031)-Vinyl-2016-DPS
2017-04-09 09:37:43 MyNaughtyAlbum.17.04.09.Kira.Thorn.XXX.1080p.MP4-KTR
2017-04-09 09:37:43 Dont_DJ-Musique_Acephale
2017-04-09 09:38:40 Zero_7-RECORD_(Deluxe)-BONUS_TRACKS-WEB-2015-MOHAWK
2017-04-09 09:39:09 Spizoo.17.04.09.Romi.Rain.Easter.Bunny.XXX.1080p.MP4-KTR
2017-04-09 09:40:50 My.Secret.Casting.Tape.4.XXX.1080p.WEBRip.MP4-VSEX
2017-04-09 09:41:25 BangBrosClips.17.04.09.Aidra.Fox.XXX.1080p.MP4-KTR
2017-04-09 09:46:58 Missing.in.Action.2.The.Beginning.1985.German.DL.720p.BluRay.x264-MAJESTiC
2017-04-09 09:57:15 VA-The_House_Of_Electro_Vol_2-WEB-2017-YOU
2017-04-09 09:59:11 Objekt--Objekt_4-(OBJEKT_004)-VINYL-2017-CMC
2017-04-09 10:00:42 Pretty_Sneaky--1-(PS_01)-VINYL-2017-CMC
2017-04-09 10:01:05 InTheCrack.E1271.Cleo.Vixen.XXX.1080p.MP4-KTR
2017-04-09 10:03:47 InTheCrack.E1271.Cleo.Vixen.XXX.2160p.MP4-KTR
2017-04-09 10:03:49 VA-The_Way_Deep_House_Vol_1-WEB-2017-YOU
2017-04-09 10:04:35 Mindfuck.S03E02.DUTCH.720p.HDTV.x264-iFH
2017-04-09 10:06:43 VA-Summer_Vibes_Vol_02-(MI075)-WEB-2017-YOU
2017-04-09 10:08:42 Mama.June-From.Not.To.Hot.S01E07.1080p.WEB.H264-TURBO
2017-04-09 10:08:59 FemJoy.17.04.09.Lara.Intimate.Session.XXX.1080p.MP4-YAPG
2017-04-09 10:09:04 MARS.2016.S01E01.1080p.BluRay.x264-PANDEMONiUM
2017-04-09 10:09:09 Madam.Secretary.S03E17.SPANiSH.1080p.HDTV.x264-ENDURANCE
2017-04-09 10:09:40 Madam.Secretary.S03E17.SPANiSH.720p.HDTV.x264-ENDURANCE
2017-04-09 10:09:48 FemJoy.com_17.04.09.Niemira.Liberty.XXX.iMAGESET-YAPG
2017-04-09 10:10:01 Mutant.X.S03E06.720p.BluRay.X264-Japhson
2017-04-09 10:10:13 Madam.Secretary.S03E17.SPANiSH.HDTV.x264-ENDURANCE
2017-04-09 10:10:17 Mutant.X.S03E07.720p.BluRay.X264-Japhson
2017-04-09 10:10:33 Mutant.X.S03E08.720p.BluRay.X264-Japhson
2017-04-09 10:10:49 Mutant.X.S03E09.720p.BluRay.X264-Japhson
2017-04-09 10:10:56 LetsTryAnal.com_17.04.08.Cecilia.Fox.Easter.Butt.Plug.Hunt.XXX.iMAGESET-YAPG
2017-04-09 10:11:09 Mutant.X.S03E10.720p.BluRay.X264-Japhson
2017-04-09 10:11:49 EbonySexTapes.com_17.04.09.Amethyst.Banks.Big.Booty.Wins.March.Madness.XXX.iMAGESET-YAPG
2017-04-09 10:12:36 InTheCrack.E1271.Cleo.Vixen.3D.XXX.1080p.MP4-KTR
2017-04-09 10:12:44 BigTitsAtWork.com_17.04.09.Jasmine.Webb.Interview.With.A.Busty.Boss.XXX.iMAGESET-YAPG
2017-04-09 10:12:54 Cosmic_Baby-Stellar_Supreme-(LOCLP9)-CD-FLAC-1994-CMC
2017-04-09 10:13:15 MARS.2016.S01E02.1080p.BluRay.x264-PANDEMONiUM
2017-04-09 10:13:31 Gustavo_Lamas-Brotes-(Onitor22)-CD-FLAC-2003-CMC
2017-04-09 10:14:21 MARS.2016.S01E03.1080p.BluRay.x264-PANDEMONiUM
2017-04-09 10:15:15 BrazzersExxtra.com_17.04.09.Jade.Amber.Jade.Screams.For.Ice.Cream.XXX.iMAGESET-YAPG
2017-04-09 10:15:21 MARS.2016.S01E04.1080p.BluRay.x264-PANDEMONiUM
2017-04-09 10:16:26 MARS.2016.S01E05.1080p.BluRay.x264-PANDEMONiUM
2017-04-09 10:17:06 BigWetButts.com_17.04.08.Kelsi.Monroe.Big.Wet.And.Ready.For.Fucking.XXX.iMAGESET-YAPG
2017-04-09 10:18:05 MARS.2016.S01E06.1080p.BluRay.x264-PANDEMONiUM
2017-04-09 10:18:30 BabyGotBoobs.com_17.04.08.Dillion.Harper.Double.Cups.With.No.Make-Up.XXX.iMAGESET-YAPG
2017-04-09 10:19:28 DigitalPlayground.com_17.04.07.Lucie.Cline.Open.Net.XXX.iMAGESET-YAPG
2017-04-09 10:19:36 ATB_ft_Robbin_and_Jonnis_-_Message_Out_To_You_(Extended_Mix)-WEB-2017-MMS
2017-04-09 10:20:16 DigitalPlayground.com_17.04.08.Monique.Alexander.Teen.Swap.Episode.3.XXX.iMAGESET-YAPG
2017-04-09 10:20:50 Blackish.S01E13.FRENCH.1080p.HDTV.x264-DEAL
2017-04-09 10:21:10 Formula1.2017.Chinese.Grand.Prix.720p.HDTV.x264-VERUM
2017-04-09 10:21:19 Blackish.S01E14.FRENCH.1080p.HDTV.x264-DEAL
2017-04-09 10:21:50 Blackish.S01E15.FRENCH.1080p.HDTV.x264-DEAL
2017-04-09 10:22:21 Blackish.S01E16.FRENCH.1080p.HDTV.x264-DEAL
2017-04-09 10:24:25 SneakySex.com_17.04.08.Lily.Rader.And.Jennifer.Jacobs.Busted.Bunk.Bed.XXX.iMAGESET-YAPG
2017-04-09 10:25:54 F1.2017.Grosser.Preis.von.China.Rennen.in.Shanghai.German.HDTVRiP.x264-SKYHD
2017-04-09 10:26:03 Landgang.S08E01.SWEDiSH.720p.WEB.h264-SAAB
2017-04-09 10:27:24 Landgang.S08E02.SWEDiSH.720p.WEB.h264-SAAB
2017-04-09 10:28:15 TeensLoveHugeCocks.com_17.04.08.Bailey.Brooke.Dick.Devour.XXX.iMAGESET-YAPG
2017-04-09 10:28:41 An.Evening.With.Take.That.2017.720p.HDTV.x264-QPEL
2017-04-09 10:28:59 VA-Portugal_All_Stars__Kaos_Totally_Mix_3-(11807739)-WEB-2017-YOU
2017-04-09 10:29:06 Landgang.S08E03.SWEDiSH.720p.WEB.h264-SAAB
2017-04-09 10:29:40 DJ_Snake_Feat_Mr_Hudson_-_Here_Comes_The_Night_(Remixes)-(006025_57567816)-WEB-2017-ZzZz
2017-04-09 10:30:04 Saturday.Night.Live.S42E17.Louis.C.K.HDTV.x264-CROOKS
2017-04-09 10:30:34 DJ_Sanny_J_-_Alert-(DPRM_1715)-WEB-2017-ZzZz
2017-04-09 10:30:47 8ThStreetLatinas.com_17.04.07.Violet.Starr.Clean.Fucking.XXX.iMAGESET-YAPG
2017-04-09 10:30:50 DJ_Aymen_Beatz_-_Legacy-(763003_7999836)-WEB-2017-ZzZz
2017-04-09 10:31:02 Landgang.S08E04.SWEDiSH.720p.WEB.h264-SAAB
2017-04-09 10:31:05 Dirty-Tech_-_Bazaar_Fantasy-(002460_6415655)-WEB-2017-ZzZz
2017-04-09 10:32:00 Dirty-Tech_-_Bazaar_Fantasy
2017-04-09 10:33:15 Landgang.S08E05.SWEDiSH.720p.WEB.h264-SAAB
2017-04-09 10:33:29 RoundAndBrown.com_17.04.07.Princess.Yummy.Tight.And.Yummy.XXX.iMAGESET-YAPG
2017-04-09 10:33:40 Bali.and.Beyond.Volume.18.Apr.2017.RETAiL.eBook-DETENTE
2017-04-09 10:34:22 Landgang.S08E06.SWEDiSH.720p.WEB.h264-SAAB
2017-04-09 10:35:48 The.New.Yorker.Mar.27.2017.RETAiL.eBook-DETENTE
2017-04-09 10:37:02 VA-Immortal_Hard_Dance_Vol_1-WEB-2017-YOU
2017-04-09 10:37:56 The.New.Yorker.Mar.13.2017.RETAiL.eBook-DETENTE
2017-04-09 10:39:01 Landgang.S08E07.SWEDiSH.720p.WEB.h264-SAAB
2017-04-09 10:39:24 VA-EDM_Revolution_2017_Best_Anthems_For_Party_And_Clubbing-WEB-2017-YOU
2017-04-09 10:39:41 The.New.Yorker.Mar.20.2017.RETAiL.eBook-DETENTE
2017-04-09 10:40:02 The.Voice.Kids.S06E07.DUTCH.1080p.HDTV.x264-iFH
2017-04-09 10:41:20 The.New.Yorker.Apr.10.2017.RETAiL.eBook-DETENTE
2017-04-09 10:42:55 VA-Redux_Miami_Selection_Mixed_by_Guy_Alexander-(RDXSEL_007)-WEB-2017-BB8
2017-04-09 10:43:11 Jestem.Morderca.2016.PL.iNT.DVDRiP.x264-N0L
2017-04-09 10:44:24 CUB.Issue.541.Sep.23.2012.RETAiL.eBook-DETENTE
2017-04-09 10:45:51 Eddy_Granero_-_Tschabala_Song-(900879_8231584)-WEB-2017-ZzZz
2017-04-09 10:47:24 Bruce_Lacey-The_Spacey_Bruce_Lacey_Film_Music_And_Improvisations-CD-FLAC-2014-NBFLAC
2017-04-09 10:47:39 The_Colorist_And_Emiliana_Torrini-The_Colorist_And_Emiliana_Torrini-CD-FLAC-2016-NBFLAC
2017-04-09 10:47:46 Ride.the.High.Country.1962.720p.BluRay.X264-AMIABLE
2017-04-09 10:47:50 Czas.Honoru.Powstanie.S01E07.PL.iNT.DVDRiP.x264-N0L
2017-04-09 10:48:46 AllOver30.com_17.04.08.Jessica.OHare.XXX.iMAGESET-YAPG
2017-04-09 10:48:49 Brandon_Cant_Dance-Graveyard_Of_Good_Times-CD-FLAC-2017-NBFLAC
2017-04-09 10:49:05 The_Exploited-Exploited_Barmy_Army-3CD-FLAC-2016-NBFLAC
2017-04-09 10:49:15 CUB.Issue.545.Jan.23.2013.RETAiL.eBook-DETENTE
2017-04-09 10:49:23 Free-Fire_And_Water-REMASTERED-CD-FLAC-2016-NBFLAC
2017-04-09 10:49:40 Free-Free-REMASTERED-CD-FLAC-2016-NBFLAC
2017-04-09 10:49:56 Elis_Regina-Elis_Regina_In_London-BR-REMASTERED-CD-FLAC-2012-NBFLAC
2017-04-09 10:50:13 Elis_Regina-Samba_Eu_Canto_Assim-BR-REMASTERED-CD-FLAC-2012-NBFLAC
2017-04-09 10:50:47 Ride.the.High.Country.1962.1080p.BluRay.X264-AMIABLE
2017-04-09 10:51:17 CUB.Issue.546.Feb.13.2013.RETAiL.eBook-DETENTE
2017-04-09 10:52:53 CUB.Issue.547.Mar.27.2013.RETAiL.eBook-DETENTE
2017-04-09 10:53:22 AllOver30.com_17.04.08.Di.Devi.XXX.iMAGESET-YAPG
2017-04-09 10:54:42 CUB.Issue.548.Oct.20.2013.RETAiL.eBook-DETENTE
2017-04-09 10:55:09 AllOver30.com_17.04.08.Foxy.Love.XXX.iMAGESET-YAPG
2017-04-09 10:55:22 Czas.Honoru.Powstanie.S01E08.PL.iNT.DVDRiP.x264-N0L
2017-04-09 10:58:31 Nashville.2012.S05E11.SPANiSH.1080p.HDTV.x264-FCC
2017-04-09 10:58:59 Nashville.2012.S05E11.SPANiSH.720p.HDTV.x264-FCC
2017-04-09 10:59:24 Nashville.2012.S05E11.SPANiSH.HDTV.x264-FCC
2017-04-09 11:06:34 Formel1.2017.Kinas.Grand.Prix.SWEDiSH.720p.HDTV.x264-sweHD
2017-04-09 11:06:36 Czas.Honoru.Powstanie.S01E09.PL.iNT.DVDRiP.x264-N0L
2017-04-09 11:09:22 Clique.S01E06.720p.WEB.H264-DRAWER
2017-04-09 11:09:33 Smoked.BBQ.S01E04.GERMAN.DOKU.720p.WebHD.x264-KiTCHEN
2017-04-09 11:09:42 Clique.S01E06.WEB.H264-DRAWER
2017-04-09 11:10:35 DJ_Y_T_-_My_Lady_(DJ_Gavin_Remix)-(EBN_150)-WEB-2017-ZzZz
2017-04-09 11:10:51 DJ_Yasmin_-_Cookies_EP-(361497_4828477)-WEB-2017-ZzZz
2017-04-09 11:11:06 F1.2017.Grosser.Preis.von.China.Rennen.in.Shanghai.German.720p.HDTV.x264-SKYHD
2017-04-09 11:11:08 DJ_Yasmin_-_Paradise_Kiss-(361497_4796097)-WEB-2017-ZzZz
2017-04-09 11:11:25 Ed_Prymon_-_Capoeira_EP_(Original_Mixes)-(GLOW_010)-WEB-2017-ZzZz
2017-04-09 11:11:42 VA_-_Android-(TRR_184)-WEB-2017-ZzZz
2017-04-09 11:12:16 Smoked.BBQ.S01E04.GERMAN.DOKU.WEBRip.x264-KiTCHEN
2017-04-09 11:12:46 Talang.S07E04.SWEDiSH.720p.WEB.h264-SAAB
2017-04-09 11:13:13 George_Yammine_-_Cymatics_009_(Proton_Radio)-SBD-04-08-2017-TALiON_INT
2017-04-09 11:13:36 Stan_Kolev_-_Awakening_072_(Proton_Radio)-SBD-04-08-2017-TALiON_INT
2017-04-09 11:13:48 Tercsab_-_Bedroom_Bedlam_(Proton_Radio)-SBD-04-08-2017-TALiON_INT
2017-04-09 11:14:00 Vincent__VanDamm_-_Awakening_072_(Proton_Radio)-SBD-04-08-2017-TALiON_INT
2017-04-09 11:14:42 Christian_Smith_-_Tronic_245__Incl_Oscar_L_Guestmix_(Proton_Radio)-SBD-04-09-2017-TALiON_INT
2017-04-09 11:15:38 Smoked.BBQ.S01E05.GERMAN.DOKU.720p.WebHD.x264-KiTCHEN
2017-04-09 11:16:33 Alexandra_Savior-Belladonna_Of_Sadness-2017-C4
2017-04-09 11:17:02 One.Piece.Movie.12.Film.Gold.German.2016.ANiME.DL.BDRiP.x264-STARS
2017-04-09 11:17:44 Naruto.Shippuden.The.Movie.4.The.Lost.Tower.German.2010.ANiME.DL.BDRiP.x264-STARS
2017-04-09 11:18:19 One.Piece.Movie.12.Film.Gold.2016.German.DL.DTS.720p.BluRay.x264-STARS
2017-04-09 11:18:31 Smoked.BBQ.S01E05.GERMAN.DOKU.WEBRip.x264-KiTCHEN
2017-04-09 11:19:27 Naruto.Shippuden.The.Movie.4.The.Lost.Tower.2010.German.DL.DTS.720p.BluRay.x264-STARS
2017-04-09 11:19:37 Fredi_Vega_And_Brijow_-_If_Feels_Good-(405681_3060911)-WEB-2017-ZzZz
2017-04-09 11:19:40 Blonde_On_Blonde-Rebirth-Remastered-CD-2017-D2H
2017-04-09 11:20:51 Blonde_On_Blonde-Reflections_On_A_Life-Remastered-CD-2017-D2H
2017-04-09 11:21:01 One.Piece.Movie.12.Film.Gold.2016.German.DL.DTS.1080p.BluRay.x264-STARS
2017-04-09 11:21:48 Naruto.Shippuden.The.Movie.4.The.Lost.Tower.2010.German.DL.DTS.1080p.BluRay.x264-STARS
2017-04-09 11:22:25 Prison.Break.S05E00.Resurrection.720p.WEB.H264-TURBO
2017-04-09 11:23:51 Deutschland.sucht.den.Superstar.S14E18.GERMAN.HDTV.x264-RTL
2017-04-09 11:24:22 Geller_Feat_Avichayil_-_We_Turn_Into_Light-(SSCD_1300)-WEB-2017-ZzZz
2017-04-09 11:26:27 Bull.2016.S01E09.NLSUBBED.720p.HDTV.x264-iFH
2017-04-09 11:26:29 Teen.Wolf.S01E01.720p.BluRay.X264-REWARD
2017-04-09 11:27:02 Teen.Wolf.S01E04.720p.BluRay.X264-REWARD
2017-04-09 11:27:35 Teen.Wolf.S01E03.720p.BluRay.X264-REWARD
2017-04-09 11:28:08 Teen.Wolf.S01E02.720p.BluRay.X264-REWARD
2017-04-09 11:28:54 VA-Mallorca_Megacharts_Fruehlingshits_2017-WEB-DE-2017-JUSTiFY
2017-04-09 11:29:27 Charlotte_OC-Careless_People-2017-C4
2017-04-09 11:29:59 MistaJam_-_BBC_Radio1-SAT-04-08-2017-TALiON
2017-04-09 11:30:28 George_Orb_Feat_Lexblaze_-_Come_On_(Includes_Steve_Hart_Remix)-(VG_12413B)-WEB-2017-ZzZz
2017-04-09 11:31:01 DJ_Target_-_BBC_Radio1__Incl_TCTS_Guestmix-SAT-04-09-2017-TALiON
2017-04-09 11:31:16 Pink_Floyd-The_Early_Years_1965-1972-Limited_Edition_Boxset-10CD-2016-D2H
2017-04-09 11:32:00 JSTJR_-_Diplo_and_Friends-SAT-04-09-2017-TALiON
2017-04-09 11:33:00 STFU_-_Diplo_and_Friends-SAT-04-09-2017-TALiON
2017-04-09 11:33:39 Mutant.X.S02D1.COMPLETE.BLURAY-BRDC
2017-04-09 11:33:55 Barbie.And.Her.Sisters.In.The.Great.Puppy.Adventure.2015.PLDUB.iNT.DVDRiP.x264-N0L
2017-04-09 11:37:46 Te.Radars.Chequered.Past.S01E08.720p.HDTV.x264-FiHTV
2017-04-09 11:41:27 Te.Radars.Chequered.Past.S01E08.HDTV.x264-FiHTV
2017-04-09 11:42:33 Nelly_Furtado-The_Ride-2017-C4
2017-04-09 11:44:13 Havlik_-_Restless-(EAX_014)-WEB-2017-ZzZz
2017-04-09 11:45:51 J_Take_-_Come_Here-(DSB_133)-WEB-2017-ZzZz
2017-04-09 11:48:56 JDZ_-_Dance_With_Me-(361497_4759726)-WEB-2017-ZzZz
2017-04-09 11:53:53 Rosehaven.S01E05.REPACK.DVDRip.x264-CBFD
2017-04-09 11:55:06 Rosehaven.S01E06.REPACK.DVDRip.x264-CBFD
2017-04-09 11:57:18 Rosehaven.S01E07.REPACK.DVDRip.x264-CBFD
2017-04-09 11:57:51 Ramiro_Lopez-This_Way-(N71)-WEB-2013-BB8
2017-04-09 11:58:56 Rosehaven.S01E08.REPACK.DVDRip.x264-CBFD
2017-04-09 12:03:09 Mutant.X.S02D2.COMPLETE.BLURAY-BRDC
2017-04-09 12:08:10 Aussie.Pickers.S02E01.DVDRip.x264-CBFD
2017-04-09 12:09:16 Familia.De.Acogida.S04E14.SPANiSH.1080p.HDTV.x264-FCC
2017-04-09 12:09:19 Aussie.Pickers.S02E02.DVDRip.x264-CBFD
2017-04-09 12:09:45 Familia.De.Acogida.S04E14.SPANiSH.720p.HDTV.x264-FCC
2017-04-09 12:10:10 Familia.De.Acogida.S04E14.SPANiSH.HDTV.x264-FCC
2017-04-09 12:10:50 Late_Night_Alumni_-_Love_Song_(Kaskades_Redux_Remix)-(AA034)-WEB-2017-MMS
2017-04-09 12:11:19 Aussie.Pickers.S02E03.DVDRip.x264-CBFD
2017-04-09 12:12:38 Aussie.Pickers.S02E04.DVDRip.x264-CBFD
2017-04-09 12:14:12 Burenkrieg.Eine.Frau.wie.tausend.Feuer.GERMAN.1990.AC3.DVDRiP.x264-iMPRESSiONS
2017-04-09 12:14:22 Jorge_Leon_Feat_Nathan_Brumley_-_Shadow_Dance-(CSDA_1388)-WEB-2017-ZzZz
2017-04-09 12:14:54 Aussie.Pickers.S02E05.DVDRip.x264-CBFD
2017-04-09 12:16:46 Formula.1.2017.Chinese.Grand.Prix.DANiSH.HDTV.x264-RCDiVX
2017-04-09 12:17:08 Deugene-When_The_Sun_Goes_Down-WEB-2017-JUSTiFY
2017-04-09 12:17:16 Aussie.Pickers.S02E06.DVDRip.x264-CBFD
2017-04-09 12:17:35 Ralf_Velasquez-Tomorrow_Train_2107-WEB-2017-JUSTiFY
2017-04-09 12:17:50 Speakerheadz-I_Believe_In_You-WEB-2017-JUSTiFY
2017-04-09 12:19:07 Aussie.Pickers.S02E07.DVDRip.x264-CBFD
2017-04-09 12:22:47 Oscar_OZZ-OZZTAPE_19-FREEWEB-2017-KPS_INT
2017-04-09 12:23:36 Oscar_OZZ-OZZTAPE_20-FREEWEB-2017-KPS_INT
2017-04-09 12:23:43 Aussie.Pickers.S02E08.DVDRip.x264-CBFD
2017-04-09 12:24:28 Oscar_OZZ-OZZTAPE_21-FREEWEB-2017-KPS_INT
2017-04-09 12:25:11 Alejandro_Alvarez_and_Jean_Phillips-Desert_Lights-WEB-2017-JUSTiFY
2017-04-09 12:25:42 DJane_Toya-You_and_Me-WEB-2017-JUSTiFY
2017-04-09 12:26:22 Oscar_OZZ-Dream_On_(Classic_Mix)-(LORDAG61)-FREEWEB-2017-KPS_INT
2017-04-09 12:26:46 Kretts_-_Sentinel_(Album)-(AKC_012)-WEB-2017-ZzZz
2017-04-09 12:27:51 Red_Hot_Chili_Peppers-Californication_(Oscar_OZZ_Edit)-FREEWEB-2017-KPS_INT
2017-04-09 12:28:32 Stereo_Express-Praise_You-FREEWEB-2017-KPS_INT
2017-04-09 12:29:16 The_Chemical_Brothers-Galvanize_(Stereo_Express_Remake)-FREEWEB-2016-KPS_INT
2017-04-09 12:31:52 Lenny_Fontana_And_D-Train_-_When_You_Feel_What_Love_Has_(The_US_Dance_Remixes)-(KPR_162US)-WEB-2017-ZzZz
2017-04-09 12:38:34 VA-Central_Agency_of_Sound_2017-WEB-2017-JUSTiFY
2017-04-09 12:41:11 BattleBots.2015.S02E09.GERMAN.720p.HDTV.x264-MOUSECLiCK
2017-04-09 12:42:26 BattleBots.2015.S02E09.GERMAN.HDTV.x264-MOUSECLiCK
2017-04-09 12:44:06 Mutant.X.S02E22.1080p.BluRay.X264-FLHD
2017-04-09 12:44:16 The.Purring.Quest.MULTi6-PLAZA
2017-04-09 12:44:28 The.Purring.Quest.v1.9.MULTI6-SiMPLEX
2017-04-09 12:45:13 Rotor.DR1.2015.COMPLETE.PAL.DVDR-WaLMaRT
2017-04-09 12:45:27 Formula.1.2017.Chinese.Grand.Prix.DANiSH.720p.HDTV.x264-DiViSiON
2017-04-09 12:48:07 Maurizio_Palmacci_-_Night-(AM_3680)-WEB-2014-ZzZz
2017-04-09 12:48:34 Maurizio_Palmacci_-_Shining_Star-(AM_3690)-WEB-2016-ZzZz
2017-04-09 12:49:02 Maurizio_Palmacci_-_Your_More-(AM_3693)-WEB-2015-ZzZz
2017-04-09 12:49:10 Murder.Uncovered.S01E05.720p.HDTV.x264-CBFM
2017-04-09 12:49:14 Murder.Uncovered.S01E05.HDTV.x264-CBFM
2017-04-09 12:53:57 VA-DJ_Promotion_CD_Pool_Big_Room_EDM_431-2017-B2R
2017-04-09 12:55:08 Formule1.2017.GP02.China.DUTCH.720p.HDTV.x264-iFH
2017-04-09 12:55:14 Nobody.Can.Cool.2015.PAL.DVD9-SaMSCLUB
2017-04-09 12:55:48 Ms_Project_Feat_Michael_Scholz_-_Im_Not_The_Man_I_Used_To_Be-(361497_4681218)-WEB-2017-ZzZz
2017-04-09 12:56:46 840_-_I_Want_Your_Love-WEB-1995-iDC
2017-04-09 12:57:53 Yes_No_Yes_Feat_Max_V_-_Keep_Together-WEB-1994-iDC
2017-04-09 12:57:58 MotoGP.2017.Argentina.Qualifying.1080p.HDTV.x264-GRiP
2017-04-09 12:59:24 Music_P_And_Marque_Aurel_-_No_Good-(405681_3058772)-WEB-2017-ZzZz
2017-04-09 13:01:01 Mutant.X.S03E11.720p.BluRay.X264-Japhson
2017-04-09 13:06:07 Orkun_Seymen_-_Miranda-(SR_001)-WEB-2017-ZzZz
2017-04-09 13:06:50 UFC.210.Preliminary.Fights.1080p.HDTV.x264-PLUTONiUM
2017-04-09 13:08:54 The.Living.Room.S06E09.720p.HDTV.x264-CBFM
2017-04-09 13:09:03 The.Living.Room.S06E09.HDTV.x264-CBFM
2017-04-09 13:09:43 Oziriz_Feat_Dura_-_Electrissimo-(HB_021)-WEB-2017-ZzZz
2017-04-09 13:10:17 Travel.Guides.AU.S01E05.720p.HDTV.x264-CBFM
2017-04-09 13:10:25 Travel.Guides.AU.S01E05.HDTV.x264-CBFM
2017-04-09 13:11:39 DiskDigger.v1.12.5.2081.Multilingual-PH
2017-04-09 13:12:24 Mutant.X.S03E16.720p.BluRay.X264-Japhson
2017-04-09 13:12:30 UFC.210.PPV.HDTV.x264-PLUTONiUM
2017-04-09 13:15:25 Ravoxi_-_Massive-(AWD_312799)-WEB-2017-ZzZz
2017-04-09 13:16:38 Reg_Kaltani_-_Tech-(361497_4877185)-WEB-2017-ZzZz
2017-04-09 13:18:18 Travel.Guides.AU.S01E06.720p.HDTV.x264-CBFM
2017-04-09 13:18:23 Travel.Guides.AU.S01E06.HDTV.x264-CBFM
2017-04-09 13:20:53 Poldark.S01D02.MULTi.COMPLETE.BLURAY-CWAHD
2017-04-09 13:24:57 Regi_-_Should_Have_Been_There-(405681_3060157)-WEB-2016-ZzZz
2017-04-09 13:37:29 The.Get.Down.S01E09.720p.WEBRip.X264-DEFLATE
2017-04-09 13:42:39 Der.Letzte.Tropfen.2017.GERMAN.720p.HDTV.x264-FiLMCHEN
2017-04-09 13:43:10 Der.Letzte.Tropfen.2017.GERMAN.HDTV.x264-FiLMCHEN
2017-04-09 13:51:58 Vector.36.Update.v1.2-CODEX
2017-04-09 13:56:46 Nocturnal.Animals.2016.MULTi.COMPLETE.BLURAY-FLAME
2017-04-09 14:00:45 A.Passion.For.The.Vine.2012.1080p.WEB.x264-Ltu
2017-04-09 14:00:50 Denys_Nazarov_-_We_Are_The_World-(AE262)-WEB-2017-MMS
2017-04-09 14:01:12 Thomas_P_Heckmann-Thomas_P_Heckmann_25th_Anniversary_Remixes_Pt_3-(AFULTD66)-WEB-2017-ENSLAVE
2017-04-09 14:01:16 Stoneface_And_Terminal-Beast_In_The_Machine-WEB-2017-TSP
2017-04-09 14:01:20 Jon_Bourne_-_El_Camino_EP-(AEP251)-WEB-2017-MMS
2017-04-09 14:01:37 Black_XS_and_RELOAD_-_Human_Rage-(DARK003)-WEB-2017-MMS
2017-04-09 14:01:46 PentaLogix.ViewMate.Pro.v11.12.9-AMPED
2017-04-09 14:01:55 Nikolauss_vs_Asteroid_-_Earthbound-(EGMSIN133)-WEB-2017-MMS
2017-04-09 14:02:10 Dan_Dobson-Black_Magic-WEB-2017-TSP
2017-04-09 14:02:11 TheFatRat_ft_Laura_Brehm_-_The_Calling_(Da_Tweekaz_Remix)-WEB-2017-MMS
2017-04-09 14:02:50 Antastic_-_Beautiful_Moment_(The_Pressurehead_and_Raw_Harmony_Remix)-(DMW176)-WEB-2017-MMS
2017-04-09 14:03:07 Noise_Zoo_and_Caitlin_Stubbs_-_Reverie-(ESS058)-WEB-2017-MMS
2017-04-09 14:03:26 Liam_Wilson_-_Split_Universe-(IWN006)-WEB-2017-MMS
2017-04-09 14:03:35 VA-Pure12-(PTTRCOMP206)-WEB-2017-ENSLAVE
2017-04-09 14:03:48 Sean_Tyas_ft_Deirdre_McLaughlin_-_Supernatural_(Incl_Edit)-(FSOE223)-WEB-2017-MMS
2017-04-09 14:03:49 A.Passion.For.The.Vine.2012.720p.WEB.x264-Ltu
2017-04-09 14:04:18 Night_Sky_ft_Rebecca_Louise_Birch_-_Till_I_Break_Free-(AASC010)-WEB-2017-MMS
2017-04-09 14:04:24 Euphorizer_-_Wilderness-(DT038)-WEB-2017-MMS
2017-04-09 14:04:34 Malua_-_Hit_M-(A2REC159)-WEB-2017-MMS
2017-04-09 14:05:02 VA-Hard_Nation_Techno_Vol_1-(HNATIONCOMP027)-WEB-2017-ENSLAVE
2017-04-09 14:05:19 Diagram-Solutions-WEB-2017-ENSLAVE
2017-04-09 14:05:21 DJ_TH_ft_Natalia_Meister_-_Where_We_Belong-WEB-2017-MMS
2017-04-09 14:05:25 Atlantic_Starr-One_Love-VLS-1985-SC
2017-04-09 14:05:33 Paul_Miller_-_10years-(TAR1713)-WEB-2017-MMS
2017-04-09 14:06:01 Optya_-_Skyline-(SSW114)-WEB-2017-MMS
2017-04-09 14:06:13 Xian_-_Biomechanical_Overload-(PRK042)-WEB-2017-MMS
2017-04-09 14:06:25 Edward_Rohm_-_Sin_City-(PRK040)-WEB-2017-MMS
2017-04-09 14:06:52 Kaimo_K_and_Jo_Cartwright_-_Dont_Let_The_Pain_Get_In_The_Way_(Incl_Edit)-(AMSTR163)-WEB-2017-MMS
2017-04-09 14:07:03 A.Passion.For.The.Vine.2012.WEBRip.x264-Ltu
2017-04-09 14:07:05 Dennis_Pedersen_-_What_We_Have-(ESK016)-WEB-2017-MMS
2017-04-09 14:07:13 VA-La_Bella_Vida-(TNRCOMP213)-WEB-2017-ENSLAVE
2017-04-09 14:07:56 9eek_-_End_Of_Love-(SDR119)-WEB-2017-MMS
2017-04-09 14:08:01 Wen.die.Liebe.trifft.2005.GERMAN.720p.HDTV.x264-TVPOOL
2017-04-09 14:08:18 David_Hattingh_-_Blueshift-(RISE015)-WEB-2017-MMS
2017-04-09 14:08:32 VA-The_Sin_of_Lounge-(GVN339)-WEB-2017-ENSLAVE
2017-04-09 14:08:42 MK_and_TW_-_Tokyo_Afterhour-(SCR021)-WEB-2017-MMS
2017-04-09 14:08:58 Alex_Van_Gray_-_Infinity-(SDR120)-WEB-2017-MMS
2017-04-09 14:09:12 Marcel_Kaiser_-_Identify-(TA111)-WEB-2017-MMS
2017-04-09 14:09:41 Deutschland.sucht.den.Superstar.S14E18.GERMAN.720p.HDTV.x264-RTL
2017-04-09 14:09:42 Chapter_XJ_-_Let_It_Go_(Derek_Palmer_Remix)-(BTSR155)-WEB-2017-MMS
2017-04-09 14:10:16 Finding.Father.2014.1080p.WEB.x264-Ltu
2017-04-09 14:10:46 VA-Sound_Architects-WEB-2017-ENSLAVE
2017-04-09 14:11:09 Jay_Lumen-Lost_Tales_The_Remixes-(FWLP02)-WEB-2017-ENSLAVE
2017-04-09 14:11:21 Soulful-Cafe-Disco_Brothers_and_Sisters-WEB-2017-ENSLAVE
2017-04-09 14:11:58 Awanto_3-Gargamel-(DKMNTL042)-WEB-2017-ENSLAVE
2017-04-09 14:12:11 Chopstick_Dubplate-Gundolero-(CHOP17)-WEB-2017-ENSLAVE
2017-04-09 14:12:12 Ozo_Effy_-_Deep_Reality-(INFRA184)-WEB-2017-MMS
2017-04-09 14:13:18 Platunoff_ft_Hidden_Tigress_-_Until_The_Dawn-(SNS065)-WEB-2017-MMS
2017-04-09 14:13:21 Finding.Father.2014.720p.WEB.x264-Ltu
2017-04-09 14:14:24 Blufeld_-_Life_Giver_(Remixes)-(ASR130)-WEB-2017-MMS
2017-04-09 14:15:03 Sam_Laxton_-_Local_Anaesthetic-(AVAW015)-WEB-2017-MMS
2017-04-09 14:15:58 Daniel_Wanrooy_-_Drifting_(Extended_Mix)-(BH8170)-WEB-2017-MMS
2017-04-09 14:16:51 Solutio_ft_MC_Democian_-_Punk_Bitch-(GBR016)-WEB-2017-MMS
2017-04-09 14:17:57 Keywork_and_Exitvibes_ft_Dory_-_Sunrise-(ENTRM072)-WEB-2017-MMS
2017-04-09 14:18:40 Toneshifterz_ft_MC_D_-_PSYSTYLE-(WER086)-WEB-2017-MMS
2017-04-09 14:19:22 Finding.Father.2014.WEBRip.x264-Ltu
2017-04-09 14:19:36 Migra_-_A_Second_Chance-(MLR0079)-WEB-2017-MMS
2017-04-09 14:20:13 The.Son.S01E01-E02.INTERNAL.720p.HDTV.x264-aAF
2017-04-09 14:22:33 Kick.Out.Your.Boss.2014.1080p.WEB.x264-Ltu
2017-04-09 14:23:21 Manhunter.1986.iNTERNAL.720p.BluRay.x264-MOOVEE
2017-04-09 14:24:12 W_and_W_-_Put_EM_Up-WEB-2017-MMS
2017-04-09 14:25:31 Arcotech-Fever_77-(DFR074)-WEB-2017-ENSLAVE
2017-04-09 14:25:38 Kick.Out.Your.Boss.2014.720p.WEBRip.x264-Ltu
2017-04-09 14:25:46 Arii_and_Hervert_Asia-EP_Remixes-(DG020)-WEB-2017-ENSLAVE
2017-04-09 14:26:02 Aroop_Roy-Talkin_Bout_Life-(HOD017)-WEB-2017-ENSLAVE
2017-04-09 14:26:19 Aviat-Promises_EP-(19BOX122)-WEB-2017-ENSLAVE
2017-04-09 14:26:33 Charlie_Brown_Superstar-Body_and_Soul-(BM053)-WEB-2017-ENSLAVE
2017-04-09 14:26:49 Env3-Typ7-9-(PD042)-WEB-2017-ENSLAVE
2017-04-09 14:26:54 Obi_-_Slenderman-(DISDAR163)-WEB-2017-MMS
2017-04-09 14:27:04 Folamour-Nights_Over_You_EP-(RFBR014)-WEB-2017-ENSLAVE
2017-04-09 14:27:20 Folkarchive-Mistwood-(MLR027)-WEB-2017-ENSLAVE
2017-04-09 14:27:27 Bull.2016.S01E09.NLSUBBED.1080p.HDTV.x264-iFH
2017-04-09 14:27:35 Johnny_Kaos-Shamanism-(STICKSHAMAN165)-WEB-2017-ENSLAVE
2017-04-09 14:27:50 Kaelan-Inner_Expanse-(ETG020)-WEB-2017-ENSLAVE
2017-04-09 14:28:06 Kid_Panel-That_Body-(DSTR187)-WEB-2017-ENSLAVE
2017-04-09 14:28:22 MrT2s-Acid_Boogie_Tribe_EP-(TVR15)-WEB-2017-ENSLAVE
2017-04-09 14:28:37 Oisel-Multiverso_(Part_1)-(FLOAT018)-WEB-2017-ENSLAVE
2017-04-09 14:28:47 Kick.Out.Your.Boss.2014.WEBRip.x264-Ltu
2017-04-09 14:28:53 Rautu-Sphere-(IMNT051)-WEB-2017-ENSLAVE
2017-04-09 14:29:07 Michael_Milov_-_Parallel_Universe-(DISCWL132)-WEB-2017-MMS
2017-04-09 14:29:24 TR_Early_Earl-Bad_Business_EP-(NSYDE011)-WEB-2017-ENSLAVE
2017-04-09 14:29:39 Thomas_Hoffknecht-Systems_EP-(NLS012)-WEB-2017-ENSLAVE
2017-04-09 14:29:56 Tobi_Neumann_Patrick_Ense-What_Zwei_EP-(WHAT02)-WEB-2017-ENSLAVE
2017-04-09 14:30:11 VA-House_Of_Virus_and_Friends_EP-(FREAK034)-WEB-2017-ENSLAVE
2017-04-09 14:30:27 VA-The_Garden_Of_Eden_01-(VIMBREAKSANNEP01)-WEB-2017-ENSLAVE
2017-04-09 14:30:42 Von_Grall-Seeling_Loyalty-(MOD28)-WEB-2017-ENSLAVE
2017-04-09 14:31:54 Manuel_Le_Saux_and_James_Kelly_-_The_Right_Direction-(DISCOVER191)-WEB-2017-MMS
2017-04-09 14:31:57 The.Bijou.A.One.Way.Crossing.2014.1080p.WEBRip.x264-Ltu
2017-04-09 14:33:21 The.Tenth.Line.v1.0.7.RIP-SiMPLEX
2017-04-09 14:34:14 Hannibal.Rising.2007.iNTERNAL.720p.BluRay.x264-MOOVEE
2017-04-09 14:34:16 Soul_Entity_-_Inside_the_Mountains-(DISCDIG160)-WEB-2017-MMS
2017-04-09 14:35:05 The.Bijou.A.One.Way.Crossing.2014.720p.WEBRip.x264-Ltu
2017-04-09 14:35:36 Neos_-_Marquis_De_Sade-(DISCWL130)-WEB-2017-MMS
2017-04-09 14:36:04 Backface-Bullets_and_Balls-WEB-2017-ENTiTLED
2017-04-09 14:36:22 Ended-Five_Eyes-WEB-2017-ENTiTLED
2017-04-09 14:36:23 Arga.Snickaren.Med.Adam.Alsing.S01E08.SWEDiSH.720p.HDTV.x264-CCCAM
2017-04-09 14:36:40 Final_Disaster-The_Darkest_Path-EP-WEB-2017-ENTiTLED
2017-04-09 14:36:49 Gary_Maguire_-_Secrets-(DISCWL129)-WEB-2017-MMS
2017-04-09 14:36:58 No_Yan_The_Angry_Band-The_No_Yan_Games-EP-WEB-2017-ENTiTLED
2017-04-09 14:37:16 Putrid_Mantra-Dis_(The_Forbidden_City)-WEB-2014-ENTiTLED
2017-04-09 14:37:33 Seasons_of_Pain-Psycho_Bitch-WEB-2010-ENTiTLED
2017-04-09 14:37:51 The_Father_Figures-Heavy_Lifting-WEB-2017-ENTiTLED
2017-04-09 14:38:10 Toro_Santo-La_Estampida-WEB-SP-2017-ENTiTLED
2017-04-09 14:38:15 The.Bijou.A.One.Way.Crossing.2014.WEBRip.x264-Ltu
2017-04-09 14:41:26 The.Millennial.Dream.2016.1080p.WEBRip.x264-Ltu
2017-04-09 14:41:55 Bobby_Rock_-_You_Know_You_Like_It-WEB-2017-MMS
2017-04-09 14:43:40 Row_Rocka_-_Nighthawk-(REVR313)-WEB-2017-MMS
2017-04-09 14:44:32 The.Millennial.Dream.2016.720p.WEBRip.x264-Ltu
2017-04-09 14:44:50 Manhunter.1986.iNTERNAL.NFOFIX.720p.BluRay.x264-MOOVEE
2017-04-09 14:46:30 Seven_Lions_ft_Skyler_Stonestreet_-_Freesol-WEB-2017-MMS
2017-04-09 14:47:40 The.Millennial.Dream.2016.WEBRip.x264-Ltu
2017-04-09 14:48:15 The.Bachelor.NZ.S03E07.720p.HDTV.x264-FiHTV
2017-04-09 14:49:01 Jean.Luc.Lemoine.Si.Vous.Avez.Manque.Le.Debut.2017.FRENCH.720p.HDTV.x264-DEAL
2017-04-09 14:54:29 Manhunter.1986.iNTERNAL.1080p.BluRay.x264-MOOVEE
2017-04-09 14:54:34 Mark_Sherry_-_Gravitational_Waves_(The_Techno_Remixes)-(TBR034)-WEB-2017-MMS
2017-04-09 14:55:06 VA-Back_In_The_Days_Riddim-WEB-SP-2015-FMT_INT
2017-04-09 14:56:41 The.Bachelor.NZ.S03E07.HDTV.x264-FiHTV
2017-04-09 14:57:36 VA-Bad_Love_Riddim-WEB-SP-2015-FMT_INT
2017-04-09 14:57:46 Trilucid_and_Phil_Martyn_-_Elements-(PRFBL021)-WEB-2017-MMS
2017-04-09 14:58:33 VA-Gudby_Riddim-WEB-SP-2016-FMT_INT
2017-04-09 14:59:33 VA-LH_Riddim-WEB-SP-2015-FMT_INT
2017-04-09 15:00:18 VA-Pull_Up_Riddim-WEB-SP-2016-FMT_INT
2017-04-09 15:00:54 VA-Scairof_Riddim-WEB-SP-2016-FMT_INT
2017-04-09 15:06:50 VA-Se_Llama_Riddim-WEB-SP-2016-FMT_INT
2017-04-09 15:07:01 VA-Someteo_Riddim-WEB-SP-2016-FMT_INT
2017-04-09 15:09:02 Country.Calendar.2017.04.09.720p.HDTV.x264-FiHTV
2017-04-09 15:10:13 WonderFox.DVD.Ripper.Pro.v8.4.Incl.Keygen-AMPED
2017-04-09 15:10:24 WonderFox.DVD.Video.Converter.v12.0.Incl.Keygen-AMPED
2017-04-09 15:10:31 WonderFox.HD.Video.Converter.Factory.Pro.v12.0.Incl.Keygen-AMPED
2017-04-09 15:11:34 Rings_Around_Saturn_-_UNTHANK011_(UNTHANK011)-WEB-2017-TR
2017-04-09 15:13:25 Expediente.X.S01E09.SPANiSH.1080p.HDTV.X264-LPH
2017-04-09 15:14:12 VA-Chronicles_Of_Techno_Vol_1-(COLORE060)-WEB-2017-YOU
2017-04-09 15:15:07 VA-Minimallized-(CR031)-WEB-2017-YOU
2017-04-09 15:15:46 VA-ERIJO_Deep_House_Secret_Party_Vol_1-(ERIJ0313)-WEB-2017-YOU
2017-04-09 15:16:02 American.Shaolin.1991.German.DVDRiP.XViD-iND
2017-04-09 15:16:19 Battle.Brothers.v1.0.0.4.RIP-SiMPLEX
2017-04-09 15:16:31 VA-Wold_In_Miami_2017-(WRM002)-WEB-2017-YOU
2017-04-09 15:17:19 VA-Chubby_Choons_Music_Library_1-(CCML001)-WEB-2017-YOU
2017-04-09 15:18:02 VA-Subsistenz_Vol_1-(SUBSCOMP2017)-WEB-2017-YOU
2017-04-09 15:18:31 VA-Playdagroove_Miami_Sampler_2017_Vol_2_(Club_Edition)-BONUS_TRACKS-(PDG916)-WEB-2017-YOU
2017-04-09 15:20:38 VA-Spring_Party_Paradise-(3614974440778)-WEB-2017-YOU
2017-04-09 15:21:05 VA-Red_Line_Tech_House_Vol_1-(HPFLTD765)-WEB-2017-YOU
2017-04-09 15:22:05 VA-Quintessence_1st_Elixir-(ARM114)-WEB-2017-YOU
2017-04-09 15:22:27 VA-BassTherapy_Vol_1-(TTBR031)-WEB-2017-YOU
2017-04-09 15:22:48 VA-Underground_Techno_Sessions_Vol_15-(LWUTES15)-WEB-2017-YOU
2017-04-09 15:22:58 Die.Farben.Indiens.-.Geschichte.des.Subkontinents.S01E01.Die.ersten.Siedler.GERMAN.DOKU.DVDRiP.x264-iMPRESSiONS
2017-04-09 15:24:37 VA-Jump_Up_Injection_Vol_29-(10116755)-WEB-2017-YOU
2017-04-09 15:25:16 VA-Clubbers_Culture_Annual_Dubstep_Explosion-(CCVA0126)-WEB-2017-YOU
2017-04-09 15:25:50 VA-Hear_Me_Out_Vol_25-(CRM099)-WEB-2017-YOU
2017-04-09 15:26:09 Hannibal.Rising.2007.iNTERNAL.1080p.BluRay.x264-MOOVEE
2017-04-09 15:27:05 VA-Melodic_Progressive_House_Vol_10-(EDMC161)-WEB-2017-YOU
2017-04-09 15:27:55 VA-The_Alien_Gate_Stars-(TAGV001)-WEB-2017-YOU
2017-04-09 15:28:52 VA-Nothing_But._Trance_Anthems_Vol_8-(NBTA008)-WEB-2017-YOU
2017-04-09 15:33:21 Suicidegirls.com_16.12.09.Waikiki.And.Janesinner.Sailor.Sunset.XXX.iMAGESET-NLFTW
2017-04-09 15:33:41 Suicidegirls.com_17.03.11.Wolf.Kalamari.XXX.iMAGESET-NLFTW
2017-04-09 15:34:19 Saturday.Night.Live.S42E17.Louis.C.K.720p.WEB.x264-WEBSTER
2017-04-09 15:36:03 Childrens.Hospital.US.S04E01.DVDRip.x264-NODLABS
2017-04-09 15:37:05 Childrens.Hospital.US.S04E02.DVDRip.x264-NODLABS
2017-04-09 15:38:03 Childrens.Hospital.US.S04E03.DVDRip.x264-NODLABS
2017-04-09 15:38:04 Rogue.One.A.Star.Wars.Story.2016.REPACK.TRUEFRENCH.720p.BluRay.x264-PKPTRS
2017-04-09 15:39:03 Childrens.Hospital.US.S04E04.DVDRip.x264-NODLABS
2017-04-09 15:40:02 Childrens.Hospital.US.S04E05.DVDRip.x264-NODLABS
2017-04-09 15:40:33 Expediente.X.S01E10.SPANiSH.HDTV.X264-LPH
2017-04-09 15:41:03 Childrens.Hospital.US.S04E06.DVDRip.x264-NODLABS
2017-04-09 15:42:02 Childrens.Hospital.US.S04E07.DVDRip.x264-NODLABS
2017-04-09 15:43:02 Childrens.Hospital.US.S04E08.DVDRip.x264-NODLABS
2017-04-09 15:43:54 Versus.Squad.v1.13.MULTI5-SiMPLEX
2017-04-09 15:44:03 Childrens.Hospital.US.S04E09.DVDRip.x264-NODLABS
2017-04-09 15:45:04 Childrens.Hospital.US.S04E10.DVDRip.x264-NODLABS
2017-04-09 15:46:03 Childrens.Hospital.US.S04E11.DVDRip.x264-NODLABS
2017-04-09 15:47:03 Childrens.Hospital.US.S04E12.DVDRip.x264-NODLABS
2017-04-09 15:48:03 Childrens.Hospital.US.S04E13.DVDRip.x264-NODLABS
2017-04-09 15:49:02 Childrens.Hospital.US.S04E14.DVDRip.x264-NODLABS
2017-04-09 15:50:00 Springer.Mathematik.ist.schoen.Anregungen.zum.Anschauen.und.Erforschen.fuer.Menschen.zwischen.9.und.99.Jahren.2017.GERMAN.RETAIL.EBOOK-METHLAB
2017-04-09 15:53:42 Springer.Rauchstopp.Ihr.erfolgreicher.Weg.zum.Nichtraucher.2017.GERMAN.RETAIL.EBOOK-METHLAB
2017-04-09 15:54:57 Expediente.X.S01E10.SPANiSH.720p.HDTV.X264-LPH
2017-04-09 15:55:03 Henry_Saiz-El_Laberinto_(Radio_3)-DVBT-08-04-2017-EiTheLMP3
2017-04-09 15:55:55 Wally_Lopez-Insomnia_(Europa_FM)-DVBT-07-04-2017-EiTheLMP3
2017-04-09 15:56:15 Live.PD.S01E30.720p.WEB.h264-WEBSTER
2017-04-09 15:59:52 Colony.S02E13.REPACK.720p.HDTV.x264-KILLERS
2017-04-09 15:59:53 Colony.S02E13.REPACK.HDTV.x264-KILLERS
2017-04-09 16:01:00 Sabaton-Attero_Dominatus_(Re-Armed)-WEB-2006-ENTiTLED_iNT
2017-04-09 16:01:10 Penthouse.16.08.30.Mae.Meyers.in.Blue.View.XXX.1080p.MP4-GUSH
2017-04-09 16:01:16 Sabaton-Heroes_on_Tour-WEB-2016-ENTiTLED_iNT
2017-04-09 16:01:31 Sabaton-Metalizer_(Re-Armed)-WEB-2010-ENTiTLED_iNT
2017-04-09 16:01:47 Sabaton-Primo_Victoria_(Re-Armed)-WEB-2005-ENTiTLED_iNT
2017-04-09 16:02:02 Sabaton-The_Art_Of_War_(Re-Armed)-WEB-2008-ENTiTLED_iNT
2017-04-09 16:02:17 Sabaton-The_Last_Stand-WEB-2016-ENTiTLED_iNT
2017-04-09 16:02:33 Sabaton-World_War_Live-Battle_Of_The_Baltic_Sea-WEB-2011-ENTiTLED_iNT
2017-04-09 16:04:04 VA-Kuschelrock_11-2CD-FLAC-1997-VOLDiES
2017-04-09 16:06:20 VA-Kuschelrock_13-2CD-FLAC-1999-VOLDiES
2017-04-09 16:06:57 WoodmanCastingX.17.03.30.Jessica.Bell.XXX.1080p.MP4-BIUK
2017-04-09 16:08:04 WoodmanCastingX.17.04.02.Katy.Jayne.XXX.1080p.MP4-BIUK
2017-04-09 16:08:12 Up_PAL_MULTi2_Wii-PUSSYCAT
2017-04-09 16:08:34 VA-Kuschelrock_14-2CD-FLAC-2000-VOLDiES
2017-04-09 16:09:43 BBC.Geschichte.Made.in.China.S01E02.Die.grossen.Handelswege.German.DL.DOKU.WS.DVDRip.x264-CDP
2017-04-09 16:10:48 BBC.Geschichte.Made.in.China.S01E03.Das.goldene.Zeitalter.German.DL.DOKU.WS.DVDRip.x264-CDP
2017-04-09 16:10:58 Hot_8_Brass_Band-On_the_Spot-(TRU339)-WEB-2017-MOHAWK
2017-04-09 16:11:01 VA-Kuschelrock_15-2CD-FLAC-2001-VOLDiES
2017-04-09 16:11:55 BBC.Geschichte.Made.in.China.S01E04.Die.Ming.Dynastie.German.DL.DOKU.WS.DVDRip.x264-CDP
2017-04-09 16:13:02 BBC.Geschichte.Made.in.China.S01E05.Der.letzte.Kaiser.German.DL.DOKU.WS.DVDRip.x264-CDP
2017-04-09 16:13:54 VA-Kuschelrock_16-REISSUE-2CD-FLAC-2008-VOLDiES
2017-04-09 16:14:07 BBC.Geschichte.Made.in.China.S01E06.Revolutionen.German.DL.DOKU.WS.DVDRip.x264-CDP
2017-04-09 16:16:14 VA-Kuschelrock_17-2CD-FLAC-2003-VOLDiES
2017-04-09 16:17:46 Anal-Angels.17.04.09.Hazel.Dew.XXX.1080p.MP4-KTR
2017-04-09 16:19:19 VA-Kuschelrock_18-2CD-FLAC-2004-VOLDiES
2017-04-09 16:20:30 Anal-Angels.17.04.09.Hazel.Dew.XXX.2160p.MP4-KTR
2017-04-09 16:22:17 TittyAttack.17.04.09.Daisy.Gomez.XXX.1080p.MP4-KTR
2017-04-09 16:23:17 VA-Kuschelrock_19-2CD-FLAC-2005-VOLDiES
2017-04-09 16:25:47 New.Girl.S06E22.REPACK.720p.HDTV.x264-KILLERS
2017-04-09 16:25:49 New.Girl.S06E22.REPACK.HDTV.x264-KILLERS
2017-04-09 16:26:07 VA-Kuschelrock_20-2CD-FLAC-2006-VOLDiES
2017-04-09 16:26:36 Baron.Noir.S01E01.GERMAN.720p.HDTV.x264-ACED
2017-04-09 16:27:09 Baron.Noir.S01E01.GERMAN.HDTV.x264-ACED
2017-04-09 16:27:42 Dittsche.S26E06.GERMAN.720p.HDTV.x264-ACED
2017-04-09 16:27:57 War.On.Everyone.2016.REPACK.MULTI.1080p.BluRay.x264-PKPTRS
2017-04-09 16:28:01 Formula1.2017.Chinese.Grand.Prix.1080p.HDTV.x264-VERUM
2017-04-09 16:28:14 Dittsche.S26E06.GERMAN.HDTV.x264-ACED
2017-04-09 16:28:47 Rabenmuetter.S01E01.GERMAN.720p.HDTV.x264-ACED
2017-04-09 16:29:02 ALSScan.com_17.04.04.Kelly.Klass.and.Leighlani.Red.Lazy.Girl.XXX.IMAGESET-GAGBALL
2017-04-09 16:29:20 Rabenmuetter.S01E01.GERMAN.HDTV.x264-ACED
2017-04-09 16:29:54 Scott.und.Bailey.S05E01.GERMAN.720p.HDTV.x264-ACED
2017-04-09 16:30:25 Scott.und.Bailey.S05E02.GERMAN.720p.HDTV.x264-ACED
2017-04-09 16:30:59 The.Cleveland.Show.S04E03.GERMAN.720p.HDTV.x264-ACED
2017-04-09 16:31:00 UFC.210.1080p.HDTV.x264-VERUM
2017-04-09 16:31:30 The.Detour.S02E04.GERMAN.HDTV.x264-ACED
2017-04-09 16:33:26 Wen.die.Liebe.trifft.2005.GERMAN.HDTVRiP.x264-TVPOOL
2017-04-09 16:34:19 Mutant.X.S03E12.720p.BluRay.X264-Japhson
2017-04-09 16:34:59 Hotel.Heidelberg.Kommen.und.Gehen.2016.GERMAN.720p.HDTV.x264-TVPOOL
2017-04-09 16:35:31 ALSScan.com_17.04.06.Suzy.Rainbow.See.Through.XXX.IMAGESET-GAGBALL
2017-04-09 16:37:18 Brian_Cross-Europa_Baila_(Europa_FM)-DVBT-07-04-2017-EiTheLMP3
2017-04-09 16:38:12 Beat.Cop.v1.0.602.RIP-Unleashed
2017-04-09 16:38:56 NHL.2017.04.08.Toronto.vs.Pittsburgh.HDTV.x264-GAMETiME
2017-04-09 16:39:31 Yves_V-V_Sessions_093_(Europa_FM)-DVBT-09-04-2017-EiTheLMP3
2017-04-09 16:40:02 ALSScan.com_17.04.08.Eveline.Dellai.and.Lola.Sleepover.XXX.IMAGESET-GAGBALL
2017-04-09 16:40:13 NHL.2017.04.08.Toronto.vs.Pittsburgh.720p.HDTV.x264-GAMETiME
2017-04-09 16:44:39 The.Good.Fight.S01E09.720p.WEBRip.X264-DEFLATE
2017-04-09 16:44:46 ATKPetites.com_17.04.04.Arielle.Faye.Amateur.XXX.IMAGESET-GAGBALL
2017-04-09 16:45:42 The.Good.Fight.S01E09.WEBRip.X264-DEFLATE
2017-04-09 16:46:39 ATKPetites.com_17.04.07.Norah.Nova.Uniforms.XXX.IMAGESET-GAGBALL
2017-04-09 16:46:52 Renewed_Resistance-Dance_Bar-(CM015)-WEB-2017-wAx
2017-04-09 16:49:31 Third_District-Glimmer-(PD145)-WEB-2017-SPANK
2017-04-09 16:50:25 Deus.Ex.Revision-TiNYiSO
2017-04-09 16:52:22 ATKPetites.com_17.04.09.Norah.Nova.Amateur.XXX.IMAGESET-GAGBALL
2017-04-09 16:52:42 Chris_Giuliano-Closeout-(ESR327)-WEB-2017-SPANK
2017-04-09 16:53:01 Formula1.2017.Chinese.Grand.Prix.La.Grille.FRENCH.1080p.HDTV.x264-TiTUS
2017-04-09 16:53:40 ATKPremium.com_17.04.06.Jessica.Rex.XXX.IMAGESET-GAGBALL
2017-04-09 16:54:49 ATKPremium.com_17.04.07.Haley.Reed.XXX.IMAGESET-GAGBALL
2017-04-09 16:56:06 ATKPremium.com_17.04.08.Krystal.Orchid.XXX.IMAGESET-GAGBALL
2017-04-09 16:56:18 Mutant.X.S03E17.720p.BluRay.X264-Japhson
2017-04-09 16:57:18 ATKPremium.com_17.04.09.Haley.Reed.XXX.IMAGESET-GAGBALL
2017-04-09 16:58:27 Fantastic.Beasts.and.Where.to.Find.Them.NORDiC.SUBPACK.BluRay-REQ
2017-04-09 16:59:25 AuntJudys.com_17.04.06.Star.Nine.Toys.And.Masturbation.XXX.IMAGESET-GAGBALL
2017-04-09 17:00:24 VA-DJ_Promotion_CD_Pool_Black_164-2017-B2R
2017-04-09 17:00:27 AuntJudys.com_17.04.08.Helena.Toys.And.Masturbation.XXX.IMAGESET-GAGBALL
2017-04-09 17:00:42 UFC.210.FRENCH.720p.HDTV.x264-FiLLTHEGAP
2017-04-09 17:02:34 Penthouse.16.08.30.Jayden.Lee.in.Revved.and.Ready.XXX.1080p.MP4-GUSH
2017-04-09 17:07:03 Saturday.Night.Live.S42E17.Louis.C.K.720p.HDTV.x264-CROOKS
2017-04-09 17:07:09 Babes.com_17.04.04.Melissa.Moore.Sweet.Tooth.XXX.IMAGESET-GAGBALL
2017-04-09 17:07:56 Babes.com_17.04.05.Cherry.Kiss.The.Black.Corset.Odyssey.Part.1.XXX.IMAGESET-GAGBALL
2017-04-09 17:08:33 Babes.com_17.04.06.Haley.Hill.Swingers.XXX.IMAGESET-GAGBALL
2017-04-09 17:09:23 Babes.com_17.04.08.Blanche.Bradburry.and.Claudia.Macc.Hey.Thats.Mine.XXX.IMAGESET-GAGBALL
2017-04-09 17:09:30 Lesbea.17.04.09.Cayla.Lyons.And.Paula.Shy.XXX.1080p.MP4-KTR
2017-04-09 17:10:35 Spec_Ops_II-CLS
2017-04-09 17:12:35 Wildnis.wider.Willen.S02E06.Den.letzten.ueberleben.die.Hunde.GERMAN.DOKU.720p.HDTV.x264-redTV
2017-04-09 17:14:05 Wildnis.wider.Willen.S02E06.Den.letzten.ueberleben.die.Hunde.GERMAN.DOKU.HDTVRiP.x264-redTV
2017-04-09 17:14:19 Joymii.com_17.04.06.Milena.and.Kristof.Love.Me.Hard.XXX.IMAGESET-GAGBALL
2017-04-09 17:15:17 Preservation_Hall_Jazz_Band-Sweet_Emma_and_Her_Preservation_Hall_Jazz_Band-WEB-2004-MOHAWK
2017-04-09 17:15:35 Wildnis.wider.Willen.S02E07.Ein.Opfer.fuer.die.Maya.GERMAN.DOKU.720p.HDTV.x264-redTV
2017-04-09 17:17:04 Wildnis.wider.Willen.S02E07.Ein.Opfer.fuer.die.Maya.GERMAN.DOKU.HDTVRiP.x264-redTV
2017-04-09 17:17:11 4.oClock.Club.S06E07.720p.WEB.h264-ROFL
2017-04-09 17:17:12 4.oClock.Club.S06E07.WEB.h264-ROFL
2017-04-09 17:17:12 Kermit_Ruffins-1533_St_Philip_Street-WEB-2001-MOHAWK
2017-04-09 17:17:23 Alone.with.the.In-Laws.720p.WEB.h264-ROFL
2017-04-09 17:17:23 Alone.with.the.In-Laws.WEB.h264-ROFL
2017-04-09 17:17:26 EastEnders.2017.04.06.720p.WEB.h264-ROFL
2017-04-09 17:17:27 EastEnders.2017.04.06.WEB.h264-ROFL
2017-04-09 17:17:31 EastEnders.2017.04.07.720p.WEB.h264-ROFL
2017-04-09 17:17:33 EastEnders.2017.04.07.WEB.h264-ROFL
2017-04-09 17:17:34 Hinterland.S03E00.The.Story.So.Far.DIRFIX.720p.WEB.h264-ROFL
2017-04-09 17:17:34 Hinterland.S03E00.The.Story.So.Far.DIRFIX.WEB.h264-ROFL
2017-04-09 17:17:39 New.York.Hijabis.720p.WEB.h264-ROFL
2017-04-09 17:17:39 New.York.Hijabis.WEB.h264-ROFL
2017-04-09 17:17:42 Officially.Amazing.S03E12.720p.WEB.h264-ROFL
2017-04-09 17:17:43 Officially.Amazing.S03E12.WEB.h264-ROFL
2017-04-09 17:17:47 Officially.Amazing.S03E13.720p.WEB.h264-ROFL
2017-04-09 17:17:47 Officially.Amazing.S03E13.WEB.h264-ROFL
2017-04-09 17:17:51 Officially.Amazing.S05E01.720p.WEB.h264-ROFL
2017-04-09 17:17:55 Officially.Amazing.S05E02.720p.WEB.h264-ROFL
2017-04-09 17:17:56 Officially.Amazing.S05E02.WEB.h264-ROFL
2017-04-09 17:17:57 Officially.Amazing.S05E01.WEB.h264-ROFL
2017-04-09 17:17:59 Only.Connect.S12E37.720p.WEB.h264-ROFL
2017-04-09 17:18:00 Only.Connect.S12E37.WEB.h264-ROFL
2017-04-09 17:18:02 The.Andrew.Marr.Show.2017.03.12.720p.WEB.h264-ROFL
2017-04-09 17:18:02 The.Andrew.Marr.Show.2017.03.12.WEB.h264-ROFL
2017-04-09 17:18:06 The.Andrew.Marr.Show.2017.03.19.720p.WEB.h264-ROFL
2017-04-09 17:18:06 The.Andrew.Marr.Show.2017.03.19.WEB.h264-ROFL
2017-04-09 17:18:10 The.Andrew.Marr.Show.2017.03.26.720p.WEB.h264-ROFL
2017-04-09 17:18:12 The.Andrew.Marr.Show.2017.03.26.WEB.h264-ROFL
2017-04-09 17:18:14 The.Andrew.Marr.Show.2017.04.02.720p.WEB.h264-ROFL
2017-04-09 17:18:15 The.Andrew.Marr.Show.2017.04.02.WEB.h264-ROFL
2017-04-09 17:18:19 The.Andrew.Marr.Show.2017.04.09.720p.WEB.h264-ROFL
2017-04-09 17:18:24 The.Andrew.Marr.Show.2017.04.09.WEB.h264-ROFL
2017-04-09 17:18:25 The.Stepford.Wives.2004.720p.WEB.h264-MEGABOX
2017-04-09 17:18:28 The.Stepford.Wives.2004.INTERNAL.WEB.h264-MEGABOX
2017-04-09 17:18:29 WHOOPS.I.MISSED.THE.BUS.S03E42.720p.WEB.h264-ROFL
2017-04-09 17:18:29 WHOOPS.I.MISSED.THE.BUS.S03E42.WEB.h264-ROFL
2017-04-09 17:18:32 WHOOPS.I.MISSED.THE.BUS.S03E43.720p.WEB.h264-ROFL
2017-04-09 17:18:33 WHOOPS.I.MISSED.THE.BUS.S03E43.WEB.h264-ROFL
2017-04-09 17:18:35 Wildnis.wider.Willen.S02E08.Insel.des.Todes.GERMAN.DOKU.720p.HDTV.x264-redTV
2017-04-09 17:18:39 WHOOPS.I.MISSED.THE.BUS.S04E01.720p.WEB.h264-ROFL
2017-04-09 17:18:39 WHOOPS.I.MISSED.THE.BUS.S04E01.WEB.h264-ROFL
2017-04-09 17:18:46 WHOOPS.I.MISSED.THE.BUS.S03E44.720p.WEB.h264-ROFL
2017-04-09 17:18:47 WHOOPS.I.MISSED.THE.BUS.S03E44.WEB.h264-ROFL
2017-04-09 17:19:20 Expediente.X.S01E10.SPANiSH.1080p.HDTV.X264-LPH
2017-04-09 17:19:41 Talamanca-When_The_Sun_Goes_Down-(SILKM116B)-WEB-2017-SPANK
2017-04-09 17:19:50 Pantyhosed4U.com_17.04.05.Kate.Rose.Strawberry.And.Creamed.XXX.IMAGESET-GAGBALL
2017-04-09 17:20:04 Wildnis.wider.Willen.S02E08.Insel.des.Todes.GERMAN.DOKU.HDTVRiP.x264-redTV
2017-04-09 17:20:07 Ronja.La.Hija.Del.Bandolero.E16.ANIME.SPANiSH.HDTV.X264-LPH
2017-04-09 17:20:33 PlayboyPlus.com_17.04.01.Bozana.Vujinovic.Playboy.Croatia.XXX.IMAGESET-GAGBALL
2017-04-09 17:20:49 Kermit_Ruffins-Happy_Talk-(BSR0111-2)-WEB-2010-MOHAWK
2017-04-09 17:21:05 Ronja.La.Hija.Del.Bandolero.E16.ANIME.SPANiSH.720p.HDTV.X264-LPH
2017-04-09 17:21:35 Following_Light-Sway-(IML116)-WEB-2017-SPANK
2017-04-09 17:22:26 Doctor.Foster.S01E02.German.DL.1080p.BluRay.x264-TV4A
2017-04-09 17:22:28 Kermit_Ruffins-Live_At_Vaughans-(BSR0106)-WEB-2007-MOHAWK
2017-04-09 17:22:56 PlayboyPlus.com_17.04.02.Unpublished.Veronica.Ricci.XXX.IMAGESET-GAGBALL
2017-04-09 17:23:35 Kermit_Ruffins-Livin_A_Treme_Life-(BSR0107-2)-WEB-2009-MOHAWK
2017-04-09 17:23:36 Following_Light-Sway
2017-04-09 17:24:05 Kermit_Ruffins-Live_At_Vaughans
2017-04-09 17:24:14 Doctor.Foster.S01E02.German.DL.720p.BluRay.x264-TV4A
2017-04-09 17:24:44 Penthouse.16.08.30.Allie.Haze.in.Live.Chat.XXX.1080p.MP4-GUSH
2017-04-09 17:25:36 Doctor.Foster.S01E02.German.WS.BDRiP.x264-TV4A
2017-04-09 17:26:26 Kermit_Ruffins-Swing_This-(BSR0102-2)-WEB-1999-MOHAWK
2017-04-09 17:26:37 PlayboyPlus.com_17.04.03.Tahlia.Paris.Cybergirl.Of.The.Year.2017.XXX.IMAGESET-GAGBALL
2017-04-09 17:27:04 Vivit-The_Ocean_Floor-(MCP036)-WEB-2017-SPANK
2017-04-09 17:27:37 Kermit_Ruffins-The_Barbecue_Swingers_Live-(BSR0101-2)-WEB-1998-MOHAWK
2017-04-09 17:27:39 FakeTaxi.17.04.09.Caroline.Ardolino.XXX.1080p.MP4-KTR
2017-04-09 17:27:51 Doctor.Foster.S01E03.German.DL.1080p.BluRay.x264-TV4A
2017-04-09 17:28:08 PlayboyPlus.com_17.04.04.Jillisa.Lynn.Generous.Assets.XXX.IMAGESET-GAGBALL
2017-04-09 17:28:13 Alex_H-Bella_Heap-(HMR025)-WEB-2017-SPANK
2017-04-09 17:28:44 Kermit_Ruffins-The_Barbecue_Swingers_Live
2017-04-09 17:28:51 Kermit_Ruffins-We_Partyin_Traditional_Style-(BSR0113-2)-WEB-2013-MOHAWK
2017-04-09 17:28:55 FemaleFakeTaxi.17.04.09.Ava.Austen.And.Stacey.Saran.XXX.1080p.MP4-KTR
2017-04-09 17:29:34 Doctor.Foster.S01E03.German.DL.720p.BluRay.x264-TV4A
2017-04-09 17:30:19 PublicAgent.17.04.09.Francesca.Dicaprio.XXX.1080p.MP4-KTR
2017-04-09 17:30:51 Doctor.Foster.S01E03.German.WS.BDRiP.x264-TV4A
2017-04-09 17:30:53 PlayboyPlus.com_17.04.05.Jasmine.Jazz.Window.Undressing.XXX.IMAGESET-GAGBALL
2017-04-09 17:31:23 Tommy_Silent-Lactea_Via-(ND20C)-WEB-2017-SPANK
2017-04-09 17:31:39 Revhead.v1.0.2198.Update-SKIDROW
2017-04-09 17:32:11 VA-DJ_Promotion_CD_Pool_House_Mixes_467-2017-B2R
2017-04-09 17:33:06 Doctor.Foster.S01E04.German.DL.1080p.BluRay.x264-TV4A
2017-04-09 17:34:52 Doctor.Foster.S01E04.German.DL.720p.BluRay.x264-TV4A
2017-04-09 17:35:03 PlayboyPlus.com_17.04.06.Alexandra.Young.Reel.Em.In.XXX.IMAGESET-GAGBALL
2017-04-09 17:36:09 Doctor.Foster.S01E04.German.WS.BDRiP.x264-TV4A
2017-04-09 17:36:47 PlayboyPlus.com_17.04.07.Shelly.Lee.Hot.Breakfast.XXX.IMAGESET-GAGBALL
2017-04-09 17:38:44 Doctor.Foster.S01E05.German.DL.1080p.BluRay.x264-TV4A
2017-04-09 17:40:15 Hawaii.Five-0.2010.S07E08.FRENCH.720p.HDTV.x264-SH0W
2017-04-09 17:40:18 Hawaii.Five-0.2010.S07E08.FRENCH.HDTV.x264-DEAL
2017-04-09 17:40:48 Doctor.Foster.S01E05.German.DL.720p.BluRay.x264-TV4A
2017-04-09 17:40:55 VA-DJ_Promotion_CD_Pool_House_Mixes_468-2017-B2R
2017-04-09 17:41:16 Grow.Op.S01E01.1080p.WEB.x264-Ltu
2017-04-09 17:41:30 Oleg_Farrier_Vs._Blaze_Sulinski-Samanta__Red_Hill-(FG224)-WEB-2017-SPANK
2017-04-09 17:41:43 PlayboyPlus.com_17.04.08.Marcella.Matos.Playboy.Brazil.XXX.IMAGESET-GAGBALL
2017-04-09 17:42:08 Doctor.Foster.S01E05.German.WS.BDRiP.x264-TV4A
2017-04-09 17:42:18 Grow.Op.S01E01.720p.WEB.x264-Ltu
2017-04-09 17:43:20 Grow.Op.S01E01.WEBRip.x264-Ltu
2017-04-09 17:43:44 SimplyAnal.com_17.04.06.Violette.and.Morgan.XXX.IMAGESET-GAGBALL
2017-04-09 17:44:21 Grow.Op.S01E02.1080p.WEB.x264-Ltu
2017-04-09 17:44:56 Julian_Calor_-_Freedom-WEB-2017-MMS
2017-04-09 17:44:59 Suze.net_17.03.29.Sandee.Westgate.and.Monica.Sweetheart.XXX.IMAGESET-GAGBALL
2017-04-09 17:45:24 Grow.Op.S01E02.720p.WEB.x264-Ltu
2017-04-09 17:45:44 Block_and_Crown_-_Deep_Inside_(Luca_Debonaire_Dubb)-WEB-2017-MMS
2017-04-09 17:46:08 Ronja.La.Hija.Del.Bandolero.E16.ANIME.SPANiSH.1080p.HDTV.X264-LPH
2017-04-09 17:46:37 Suze.net_17.03.30.Melissa.Lauren.Katsumi.and.Ben.English.XXX.IMAGESET-GAGBALL
2017-04-09 17:46:42 Grow.Op.S01E02.WEBRip.x264-Ltu
2017-04-09 17:47:43 Grow.Op.S01E03.1080p.WEB.x264-Ltu
2017-04-09 17:48:46 Grow.Op.S01E03.720p.WEB.x264-Ltu
2017-04-09 17:48:48 Suze.net_17.04.03.Shyla.Foxxx.XXX.IMAGESET-GAGBALL
2017-04-09 17:49:48 Grow.Op.S01E03.WEBRip.x264-Ltu
2017-04-09 17:50:49 VA-DJ_Promotion_CD_Pool_House_Mixes_469-2017-B2R
2017-04-09 17:50:49 Grow.Op.S01E04.1080p.WEB.x264-Ltu
2017-04-09 17:51:21 Bellator.176.720p.HDTV.x264-KYR
2017-04-09 17:51:52 Grow.Op.S01E04.720p.WEB.x264-Ltu
2017-04-09 17:52:53 Grow.Op.S01E04.WEBRip.x264-Ltu
2017-04-09 17:53:54 Grow.Op.S01E05.1080p.WEB.x264-Ltu
2017-04-09 17:54:57 Grow.Op.S01E05.720p.WEB.x264-Ltu
2017-04-09 17:55:23 Antboy.3.2016.iTALiAN.AHDTV.x264-NTROPiC
2017-04-09 17:55:57 Grow.Op.S01E05.WEBRip.x264-Ltu
2017-04-09 17:56:59 Grow.Op.S01E06.1080p.WEB.x264-Ltu
2017-04-09 17:58:01 Grow.Op.S01E06.720p.WEB.x264-Ltu
2017-04-09 17:59:02 Grow.Op.S01E06.WEBRip.x264-Ltu
2017-04-09 18:00:05 Grow.Op.S01E07.1080p.WEB.x264-Ltu
2017-04-09 18:00:10 Informe.Robinson.S10E07.SPANiSH.HDTV.X264-LPH
2017-04-09 18:01:07 Grow.Op.S01E07.720p.WEB.x264-Ltu
2017-04-09 18:01:51 VA-DJ_Promotion_CD_Pool_Pop-Dance_247-2017-B2R
2017-04-09 18:02:09 Grow.Op.S01E07.WEBRip.x264-Ltu
2017-04-09 18:03:10 Grow.Op.S01E08.1080p.WEB.x264-Ltu
2017-04-09 18:04:12 Grow.Op.S01E08.720p.WEB.x264-Ltu
2017-04-09 18:05:13 Grow.Op.S01E08.WEBRip.x264-Ltu
2017-04-09 18:06:15 Grow.Op.S01E09.1080p.WEB.x264-Ltu
2017-04-09 18:06:38 Antboy.3.2016.iTALiAN.720p.AHDTV.x264-NTROPiC
2017-04-09 18:07:04 Doctor.Foster.S01.DiSC.1.DUAL.COMPLETE.BLURAY-iFPD
2017-04-09 18:07:18 Grow.Op.S01E09.720p.WEB.x264-Ltu
2017-04-09 18:08:19 Grow.Op.S01E09.WEBRip.x264-Ltu
2017-04-09 18:08:54 The.Son.S01E01.First.Son.Of.Texas.1080p.WEB.h264-HEAT
2017-04-09 18:09:21 Grow.Op.S01E10.1080p.WEB.x264-Ltu
2017-04-09 18:10:23 Grow.Op.S01E10.720p.WEB.x264-Ltu
2017-04-09 18:11:25 Grow.Op.S01E10.WEBRip.x264-Ltu
2017-04-09 18:12:27 Grow.Op.S01E11.1080p.WEB.x264-Ltu
2017-04-09 18:13:28 Grow.Op.S01E11.720p.WEB.x264-Ltu
2017-04-09 18:14:29 Grow.Op.S01E11.WEBRip.x264-Ltu
2017-04-09 18:15:20 The.Son.S01E01.DIRFIX.First.Son.Of.Texas.1080p.WEBRip.h264-HEAT
2017-04-09 18:18:35 Suze.net_17.04.04.Cherry.Rain.and.Toni.Ribas.XXX.IMAGESET-GAGBALL
2017-04-09 18:19:08 VA-DJ_Promotion_CD_Pool_Polska_175-PL-2017-B2RPL
2017-04-09 18:20:10 Suze.net_17.04.05.Taylor.XXX.IMAGESET-GAGBALL
2017-04-09 18:20:24 VA-Essential_Guide_Progressive_Trance_Vol_12-(LWEGPT12)-WEB-2017-wAx
2017-04-09 18:21:53 Die.Verschwoerung.Toedliche.Geschaefte.2014.GERMAN.DL.PAL.DVDR-iNViTE
2017-04-09 18:22:48 Tror.Du.Jag.Ljuger.S02E04.SWEDiSH.720p.HDTV.x264-KAFFEREP
2017-04-09 18:24:15 VA-Underground_Techno_Sessions_Vol_15-(LWUTES15)-WEB-2017-wAx
2017-04-09 18:24:36 Suze.net_17.04.06.Kaitlyn.Ashley.and.Adam.Wild.XXX.IMAGESET-GAGBALL
2017-04-09 18:25:34 Mekanikal_-_Psychedelica-(HWS056)-WEB-2017-SRG
2017-04-09 18:25:41 Nightfall_And_Deluzion_-_Maniacs-(FUSION337)-WEB-2017-SRG
2017-04-09 18:25:48 Re-Mind_-_What_Have_You_Done-(GBD186)-WEB-2017-SRG
2017-04-09 18:25:50 VA-DJ_Promotion_CD_Pool_Polska_176-PL-2017-B2RPL
2017-04-09 18:25:55 VA-DJ_Promotion_CD_Pool_Polska_177-PL-2017-B2RPL
2017-04-09 18:26:12 Sub_Sonik-Strike_One-(WERCD006)-2CD-FLAC-2017-SPL
2017-04-09 18:27:09 Country.Calendar.2017.04.09.HDTV.x264-FiHTV
2017-04-09 18:27:41 Informe.Robinson.S10E07.SPANiSH.720p.HDTV.X264-LPH
2017-04-09 18:27:45 Die.Verschwoerung.Toedliche.Geschaefte.2014.GERMAN.DL.COMPLETE.PAL.DVD9-iNViTE
2017-04-09 18:27:49 Hawaii.Five-0.2010.S07E09.FRENCH.HDTV.x264-DEAL
2017-04-09 18:29:52 Hawaii.Five-0.2010.S07E09.FRENCH.720p.HDTV.x264-SH0W
2017-04-09 18:32:55 NHL.2017.04.08.San.Jose.vs.Calgary.HDTV.x264-GAMETiME
2017-04-09 18:33:55 NHL.2017.04.08.San.Jose.vs.Calgary.720p.HDTV.x264-GAMETiME
2017-04-09 18:34:26 WetAndPuffy.17.04.07.Daniella.Margot.XXX.1080p.x264-GAGViD
2017-04-09 18:35:45 WetAndPuffy.com_17.04.07.Daniella.Margot.XXX.IMAGESET-GAGBALL
2017-04-09 18:38:15 VintageFlash.com_17.04.04.Cassie.Clarke.Something.I.Want.To.Show.You.XXX.IMAGESET-GAGBALL
2017-04-09 18:39:14 Sickfest_-_K.E.N.O.-(RE41)-WEB-2017-SRG
2017-04-09 18:39:30 Zatox_And_Tatanka_-_Right_Now-(SCANTRAXX232)-WEB-2017-SRG
2017-04-09 18:40:18 VintageFlash.com_17.04.07.Jess.West.Party.Girl.XXX.IMAGESET-GAGBALL
2017-04-09 18:41:18 Guardians.of.the.Galaxy.S02E05.720p.HDTV.x264-W4F
2017-04-09 18:41:41 Stardrift.Nomads.v1.01-ALiAS
2017-04-09 18:41:42 WetAndPissy.com_17.04.04.Paris.Devine.XXX.IMAGESET-GAGBALL
2017-04-09 18:41:46 Guardians.of.the.Galaxy.S02E05.HDTV.x264-W4F
2017-04-09 18:42:42 X-Art.com_17.04.04.Kenna.The.Next.Lucky.Man.XXX.IMAGESET-GAGBALL
2017-04-09 18:44:44 PhotoDromm.com_17.02.02.Klarissa.4.Seasons.XXX.IMAGESET-GAGBALL
2017-04-09 18:47:45 Calippo_-_Solstice-(ETR358)-WEB-2017-QMI
2017-04-09 18:47:58 PhotoDromm.com_17.02.04.Yasmin.Entrapped.XXX.IMAGESET-GAGBALL
2017-04-09 18:49:43 PhotoDromm.com_17.02.06.Margot.Heatwave.XXX.IMAGESET-GAGBALL
2017-04-09 18:49:47 AUTODESK.AUTOCAD.PLANT3D.V2018.WIN64-ISO
2017-04-09 18:50:15 Mein.lieber.Boss.Du.bist.ne.Flasche.1977.GERMAN.VHSRiP.x264-TAPECRACKERs
2017-04-09 18:52:08 AUTODESK.CFD.MULTI.V2018.WIN64-ISO
2017-04-09 18:52:37 PhotoDromm.com_17.02.08.Amanda.True.XXX.IMAGESET-GAGBALL
2017-04-09 18:53:43 Ghost.Adventures.S14E03.720p.HDTV.x264-W4F
2017-04-09 18:54:59 Ghost.Adventures.S14E03.HDTV.x264-W4F
2017-04-09 18:56:25 Lorrie_Morgan-To_Get_To_You_Greatest_Hits_Collection-CD-FLAC-2000-FLACME
2017-04-09 18:56:52 Contact.S02E01.FRENCH.720p.HDTV.x264-DEAL
2017-04-09 18:57:11 Farma.S08E11.2017.SLOVAK.WEBRip.x264-OMG
2017-04-09 18:57:23 Contact.S02E01.FRENCH.HDTV.x264-DEAL
2017-04-09 18:57:47 Farma.S08E12.2017.SLOVAK.WEBRip.x264-OMG
2017-04-09 18:57:54 Contact.S02E02.FRENCH.720p.HDTV.x264-DEAL
2017-04-09 18:57:58 Farma.S08E13.2017.SLOVAK.WEBRip.x264-OMG
2017-04-09 18:58:05 Farma.S08E14.2017.SLOVAK.WEBRip.x264-OMG
2017-04-09 18:58:13 Farma.S08E15.2017.SLOVAK.WEBRip.x264-OMG
2017-04-09 18:58:23 Horna.Dolna.S05E03.2017.SLOVAK.WEBRip.x264-OMG
2017-04-09 18:58:24 Contact.S02E02.FRENCH.HDTV.x264-DEAL
2017-04-09 18:58:32 Kredenc.S04E08.2017.SLOVAK.WEBRip.x264-OMG
2017-04-09 18:58:42 PhotoDromm.com_17.02.10.Maria.Training.Day.XXX.IMAGESET-GAGBALL
2017-04-09 18:59:32 Cerveny.kapitan.2016.SLOVAK.HDTV.x264-OMG
2017-04-09 18:59:57 Cerveny.kapitan.2016.SLOVAK.720p.HDTV.x264-OMG
2017-04-09 19:00:49 Four_Tops-The_Show_Must_Go_On-LP-1977-GCP
2017-04-09 19:00:49 PhotoDromm.com_17.02.12.Victoria.Angel.Break.At.The.Lake.II.XXX.IMAGESET-GAGBALL
2017-04-09 19:00:53 Vegas.2012.S01E03.FRENCH.1080p.HDTV.x264-PANZeR
2017-04-09 19:01:56 B-Front_-_Beyond_Reality-(ROUGHCD002)-WEB-2017-SRG
2017-04-09 19:02:28 The.Get.Down.S01E10.720p.WEBRip.X264-DEFLATE
2017-04-09 19:02:33 Super8_and_Tab_-_Cosmo-WEB-2017-MMS
2017-04-09 19:04:42 James_Rollins-Labyrint_z_kosti-WEB-CZ-2017-I_KnoW_INT
2017-04-09 19:07:30 Steve_Hill_And_Francesco_Zeta_And_Luca_Antolini_-_Nicotine-(RVRSBASS026)-WEB-2017-SRG
2017-04-09 19:11:24 RRange_Manage-Winter_Sunset-CAT08198-WEB-2017-PITY
2017-04-09 19:11:58 Dr._Rude_And_Zany_-_Set_Me_Fee-(PLM014)-WEB-2017-SRG
2017-04-09 19:13:36 Altitude_-_Integration_EP_(AS-16)-Vinyl-2016-TR
2017-04-09 19:14:55 Doctor.Foster.S01.DiSC.2.DUAL.COMPLETE.BLURAY-iFPD
2017-04-09 19:16:20 Affenmesserkampf-Clowns_In_Wut-DE-2017-uC
2017-04-09 19:16:31 Chasing.Great.2016.DOC.FRENCH.720p.HDTV.x264-DEAL
2017-04-09 19:18:37 Topoi.C.Est.L.Epoque.Qui.Veut.Ca.E01.La.Barbe.DOC.FRENCH.720p.HDTV.x264-DEAL
2017-04-09 19:19:02 Kackophonia-Es_Lebt_Noch_Eine_Flamme-DE-2009-uC
2017-04-09 19:20:00 Konstantin_Sibold_-_Switch_Playground_(Studio_Brussel)-CABLE-04-09-2017-TALiON
2017-04-09 19:20:20 Sluts-Baeh-Reissue-DE-2017-uC
2017-04-09 19:20:48 Topoi.C.Est.L.Epoque.Qui.Veut.Ca.E02.Comment.Ca.Petasse.DOC.FRENCH.720p.HDTV.x264-DEAL
2017-04-09 19:21:00 Sheridan_-_In_the_Mix_(Studio_Brussel)-CABLE-04-09-2017-TALiON
2017-04-09 19:21:36 ZiL.Truck.RallyCross-TiNYiSO
2017-04-09 19:22:00 Goldfox_-_In_the_Mix_(Studio_Brussel)-CABLE-04-09-2017-TALiON
2017-04-09 19:22:51 Topoi.C.Est.L.Epoque.Qui.Veut.Ca.E03.Big.Data.DOC.FRENCH.720p.HDTV.x264-DEAL
2017-04-09 19:23:00 Dimitri_-_The_Boom_Room_147-CABLE-04-08-2017-TALiON
2017-04-09 19:23:59 2000_and_One_-_The_Boom_Room_147-CABLE-04-09-2017-TALiON
2017-04-09 19:25:00 Olivier_Weiter_-_Live_at_BASIS_(Utrecht)-CABLE-03-25-2017-TALiON
2017-04-09 19:25:08 Topoi.C.Est.L.Epoque.Qui.Veut.Ca.E04.Selfie.DOC.FRENCH.720p.HDTV.x264-DEAL
2017-04-09 19:25:36 Whos.Minding.the.Store.1963.720p.BluRay.x264-SADPANDA
2017-04-09 19:26:00 Jochem_Hamerling_-_Slam_A.M._182-CABLE-04-09-2017-TALiON
2017-04-09 19:27:00 Eric_van_Kleef_-_Clubbin_(Decibel)-CABLE-04-08-2017-TALiON
2017-04-09 19:27:24 Fashion.Model.XXX.DVDRip.x264-Pr0nStarS
2017-04-09 19:27:37 Topoi.C.Est.L.Epoque.Qui.Veut.Ca.E05.Houellebecq.DOC.FRENCH.720p.HDTV.x264-DEAL
2017-04-09 19:28:00 Bob_Sinclar_-_The_Bob_Sinclar_Show-CABLE-04-09-2017-TALiON
2017-04-09 19:29:26 StreetBlowJobs.com_17.04.09.Blair.Williams.Blow.Me.Blair.XXX.iMAGESET-YAPG
2017-04-09 19:29:44 Whos.Minding.the.Store.1963.1080p.BluRay.x264-SADPANDA
2017-04-09 19:31:16 Formule1.2017.GP02.China.DUTCH.1080p.HDTV.x264-iFH
2017-04-09 19:31:17 EuroSexParties.com_17.03.21.Linda.Moretti.And.Lauren.Backdoor.Lust.XXX.iMAGESET-YAPG
2017-04-09 19:31:39 ZiL.Truck.RallyCross.RIP-Unleashed
2017-04-09 19:33:57 Farland-Thousand_Ways_To_Die-(I.M.004)-CD-FLAC-2014-WRE
2017-04-09 19:35:03 Lazer-Lazer-(MC.013)-CD-FLAC-2015-WRE
2017-04-09 19:35:04 One.Million.Years.B.C.1966.US-CUT.720p.BluRay.x264-SADPANDA
2017-04-09 19:35:28 District.31.S01E112.FRENCH.720p.HDTV.x264-BAWLS
2017-04-09 19:35:34 District.31.S01E112.FRENCH.HDTV.x264-BAWLS
2017-04-09 19:35:44 L.Epicerie.2017.04.05.DOC.FRENCH.720p.HDTV.x264-BAWLS
2017-04-09 19:35:52 La.Facture.2017.04.04.DOC.FRENCH.720p.HDTV.x264-BAWLS
2017-04-09 19:35:58 La.Facture.2017.04.04.DOC.FRENCH.HDTV.x264-BAWLS
2017-04-09 19:36:10 Michael_Olatuja-Speak-(BD005)-CD-FLAC-2009-WRE
2017-04-09 19:37:21 Razorblade-Inferno-(M.C.018)-ES-CD-FLAC-2016-WRE
2017-04-09 19:38:28 Saratoga-No_Sufrire_Jamas_Por_Ti-(ACD159)-ES-CDS-FLAC-2009-WRE
2017-04-09 19:39:24 Dr._Rude_And_Zany_-_Set_Me_Free-(PLM014)-DiRFiX-WEB-2017-SRG
2017-04-09 19:39:30 Saurom_Lamderth-El_Guardian_De_Las_Melodias_Perdidas-(RDR_002_CD)-ES-CD-FLAC-2001-WRE
2017-04-09 19:39:40 Farscape.Verschollen.im.All.S03.DiSC.1.DUAL.COMPLETE.BLURAY-iFPD
2017-04-09 19:40:19 Teen.Wolf.S01E01.1080p.BluRay.x264-SHORTBREHD
2017-04-09 19:40:41 Soulwax-From_Deewee-(PIASR950CDX)-CD-FLAC-2017-WRE
2017-04-09 19:41:29 One.Million.Years.B.C.1966.US-CUT.1080p.BluRay.x264-SADPANDA
2017-04-09 19:42:00 Tierra_Santa-Las_Mil_Y_Una_Noche-(LM160)-ES-Digipak-2CD-FLAC-2003-WRE
2017-04-09 19:42:21 Teen.Wolf.S01E02.1080p.BluRay.x264-SHORTBREHD
2017-04-09 19:43:51 VA-DJ_Power_Vol_2_Mixed_By_Farley_and_Heller-(POWCD_2)-CD-FLAC-1994-WRE
2017-04-09 19:44:24 Teen.Wolf.S01E03.1080p.BluRay.x264-SHORTBREHD
2017-04-09 19:44:48 One.Million.Years.B.C.1966.US-CUT.iNTERNAL.BDRip.x264-LiBRARiANS
2017-04-09 19:45:36 VA-Masters_Of_Hardcore_The_Skull_Dynasty-(CLDM2017003)-3CD-FLAC-2017-WRE
2017-04-09 19:45:40 Whos.Minding.the.Store.1963.BDRip.x264-VoMiT
2017-04-09 19:45:45 The.24.Hour.War.2016.BDRip.x264-VoMiT
2017-04-09 19:46:28 Teen.Wolf.S01E04.1080p.BluRay.x264-SHORTBREHD
2017-04-09 19:47:49 Penthouse.16.08.29.Jelena.Jensen.in.Marvelous.Privilege.XXX.1080p.MP4-GUSH
2017-04-09 19:48:04 One.Million.Years.B.C.1966.US-CUT.COMPLETE.BLURAY-watchHD
2017-04-09 19:48:15 VA-Radar_Records_Presents_The_Biggest_Drum_and_Bass_and_Dubstep_Party_In_The_World_Rampage-(541624)-2CD-FLAC-2017-WRE
2017-04-09 19:49:08 The.Proud.Family.S01E04.WEB.h264-QCF
2017-04-09 19:53:11 Lemonsoul_Beats-Blood_Brothers_EP-(HTR_120)-WEB-2016-BB8
2017-04-09 19:53:30 Altitude_-_Integration_EP_(AS-16)-Prooffix-Vinyl-2016-TR
2017-04-09 19:55:51 Sosandlow-Factoria_EP-(HTR_039)-WEB-2016-BB8
2017-04-09 19:57:29 Andrea_Giudice-Face_Inside_Me_Ep-(NS_009)-WEB-2016-BB8
2017-04-09 20:00:38 Vixen.17.04.09.Evelyn.Claire.XXX.1080p.MP4-KTR
2017-04-09 20:01:57 Da_Blechhaufn-Wirtshausrunde-WEB-DE-2017-ALPMP3
2017-04-09 20:04:10 Penthouse.16.08.29.Heather.Starlet.and.Veronica.Ricci.in.Dildos.and.Greasy.Fingers.XXX.1080p.MP4-GUSH
2017-04-09 20:05:25 Harry_Romero-Drop_Killa-(BMBS_003)-WEB-2017-BB8
2017-04-09 20:05:46 Harry_Romero-Paradise-(SUB_351)-WEB-2017-BB8
2017-04-09 20:06:59 Farscape.Verschollen.im.All.S03.DiSC.2.DUAL.COMPLETE.BLURAY-iFPD
2017-04-09 20:08:20 Ras_Demo-Dutty_Gov_(Potential_Badboy_Remix)-(IMYP313173)-WEB-2017-wAx
2017-04-09 20:08:48 FemJoy.17.04.09.Lara.Intimate.Session.XXX.INTERNAL.1080p.MP4-KTR
2017-04-09 20:10:08 Vixen.17.04.09.Evelyn.Claire.XXX.2160p.MP4-KTR
2017-04-09 20:10:16 Hyphen_Hyphen-Petits_Concerts-WEB-2015-JUST
2017-04-09 20:10:35 Lemonsoul_Beats-African_Machines-(AZU_128)-WEB-2017-BB8
2017-04-09 20:13:03 WetAndPuffy.17.04.07.Daniella.Margot.XXX.2160p.MP4-KTR
2017-04-09 20:15:02 The.Get.Down.S01E11.FiNAL.MULTi.1080p.WEBRip.x264-BRiNK
2017-04-09 20:19:32 Danny_Howard-BBC_Radio_1s_Dance_Anthems-SAT-01-04-2017-LFA
2017-04-09 20:26:13 Inside.Story.The.Silence.of.the.Lambs.2010.COMPLETE.PAL.DVDR-WaLMaRT
2017-04-09 20:28:12 An.die.Toepfe.fertig.lecker.S01E02.GERMAN.WS.HDTV.x264-aWake
2017-04-09 20:28:56 An.die.Toepfe.fertig.lecker.S01E02.GERMAN.WS.720p.HDTV.x264-aWake
2017-04-09 20:29:40 Drache.Digby.S01E17.Das.grosse.Rennen.GERMAN.WS.HDTV.x264-aWake
2017-04-09 20:30:07 VA_-_The_Lotus_Collections_Vol._2-(TLRDIGI6)-WEB-2017-BarGhest_INT
2017-04-09 20:30:24 Drache.Digby.S01E17.Das.grosse.Rennen.GERMAN.WS.720p.HDTV.x264-aWake
2017-04-09 20:31:09 Drache.Digby.S01E18.Doppeltes.Spiel.GERMAN.WS.HDTV.x264-aWake
2017-04-09 20:31:41 Eagles.of.Death.Metal.Nos.Amis.2017.HDTV.x264-aAF
2017-04-09 20:31:47 PhotoDromm.com_17.02.14.Nici.Blue.Zone.XXX.IMAGESET-GAGBALL
2017-04-09 20:31:53 Drache.Digby.S01E18.Doppeltes.Spiel.GERMAN.WS.720p.HDTV.x264-aWake
2017-04-09 20:32:38 GartenKult.S02E04.DesignGarten.GERMAN.DOKU.WS.HDTV.x264-aWake
2017-04-09 20:33:22 GartenKult.S02E04.DesignGarten.GERMAN.DOKU.WS.720p.HDTV.x264-aWake
2017-04-09 20:33:40 PhotoDromm.com_17.02.16.Sophie.Sunny.Day.II.XXX.IMAGESET-GAGBALL
2017-04-09 20:34:08 Helen.Dorn.S01E08.Verlorene.Maedchen.GERMAN.WS.HDTV.x264-aWake
2017-04-09 20:34:52 Helen.Dorn.S01E08.Verlorene.Maedchen.GERMAN.WS.720p.HDTV.x264-aWake
2017-04-09 20:35:28 PhotoDromm.com_17.02.18.Charlotta.Eolian.Views.XXX.IMAGESET-GAGBALL
2017-04-09 20:35:38 Insectibles.S01E15.Gnat.mit.Hut.GERMAN.WS.HDTV.x264-aWake
2017-04-09 20:36:22 Insectibles.S01E15.Gnat.mit.Hut.GERMAN.WS.720p.HDTV.x264-aWake
2017-04-09 20:37:06 Insectibles.S01E16.Die.Zakerlake.GERMAN.WS.HDTV.x264-aWake
2017-04-09 20:37:25 Eagles.of.Death.Metal.Nos.Amis.2017.720p.HDTV.x264-aAF
2017-04-09 20:37:36 PhotoDromm.com_17.02.20.Justyna.Street.Art.II.XXX.IMAGESET-GAGBALL
2017-04-09 20:37:50 Insectibles.S01E16.Die.Zakerlake.GERMAN.WS.720p.HDTV.x264-aWake
2017-04-09 20:38:20 Farscape.Verschollen.im.All.S03.DiSC.3.DUAL.COMPLETE.BLURAY-iFPD
2017-04-09 20:38:34 Lucha.Underground.S01E31.Die.Rueckkehr.des.Drachen.GERMAN.DL.WS.HDTV.x264-aWake
2017-04-09 20:39:18 Lucha.Underground.S01E31.Die.Rueckkehr.des.Drachen.GERMAN.DL.WS.720p.HDTV.x264-aWake
2017-04-09 20:39:25 PremiumBukkake.17.03.24.Silvana.XXX.1080p.MP4-BIUK
2017-04-09 20:39:29 PhotoDromm.com_17.02.22.Yasmin.Entrapped.II.XXX.IMAGESET-GAGBALL
2017-04-09 20:40:03 Lucha.Underground.S01E31.Die.Rueckkehr.des.Drachen.GERMAN.DL.WS.1080p.HDTV.x264-aWake
2017-04-09 20:40:49 Lucha.Underground.S01E32.Die.ganze.Nacht.GERMAN.DL.WS.HDTV.x264-aWake
2017-04-09 20:40:50 Whos.Minding.the.Store.1963.R1.COMPLETE.BLURAY-watchHD
2017-04-09 20:41:31 Lucha.Underground.S01E32.Die.ganze.Nacht.GERMAN.DL.WS.720p.HDTV.x264-aWake
2017-04-09 20:41:45 PhotoDromm.com_17.02.24.Kendra.Winter.Stories.II.XXX.IMAGESET-GAGBALL
2017-04-09 20:42:16 Lucha.Underground.S01E32.Die.ganze.Nacht.GERMAN.DL.WS.1080p.HDTV.x264-aWake
2017-04-09 20:42:51 The.Lions.Song.Episode.1.to.3-TiNYiSO
2017-04-09 20:43:04 Stikk.Lasst.mich.in.Ruh.S01E03E04.GERMAN.WS.HDTV.x264-aWake
2017-04-09 20:43:46 PhotoDromm.com_17.02.26.Tyrene.Greetings.XXX.IMAGESET-GAGBALL
2017-04-09 20:43:49 Stikk.Lasst.mich.in.Ruh.S01E03E04.GERMAN.WS.720p.HDTV.x264-aWake
2017-04-09 20:43:59 The.Lions.Song.Episode.1.to.3.RIP-Unleashed
2017-04-09 20:44:29 PhotoDromm.com_17.02.28.February.Supersize.Selection.XXX.IMAGESET-GAGBALL
2017-04-09 20:44:33 Tilda.Apfelkern.S02E12.Pension.Apfelkern.GERMAN.WS.HDTV.x264-aWake
2017-04-09 20:45:15 Tilda.Apfelkern.S02E12.Pension.Apfelkern.GERMAN.WS.720p.HDTV.x264-aWake
2017-04-09 20:46:00 WWE.Monday.Night.RAW.2017-04-03.GERMAN.WS.HDTV.x264-aWake
2017-04-09 20:46:45 WWE.Monday.Night.RAW.2017-04-03.GERMAN.WS.720p.HDTV.x264-aWake
2017-04-09 20:47:30 WWE.Smackdown.2017-04-04.GERMAN.WS.HDTV.x264-aWake
2017-04-09 20:48:15 WWE.Smackdown.2017-04-04.GERMAN.WS.720p.HDTV.x264-aWake
2017-04-09 20:50:14 WWE.Smackdown.2017-04-04.GERMAN.WS.720p.HDTV.x264-ae
2017-04-09 20:50:16 WWE.Smackackdown.2017-04-04.GERMAN.WS.720p.HDTV.x264-aWake
2017-04-09 20:50:22 PhotoDromm.com_17.03.02.Anastasia.Warm.Sensations.XXX.IMAGESET-GAGBALL
2017-04-09 20:52:13 Penthouse.16.08.29.Bree.Daniels.and.Kenna.James.in.Intimate.Tasks.For.Her.New.Assistent.XXX.1080p.MP4-GUSH
2017-04-09 20:53:05 PhotoDromm.com_17.03.04.Klarissa.Day.After.Day.XXX.IMAGESET-GAGBALL
2017-04-09 20:54:13 Godzilla.2014.iTALiAN.iNTERNAL.720p.HDTV.x264-iDiB
2017-04-09 20:54:31 Godzilla.2014.iTALiAN.iNTERNAL.HDTV.x264-iDiB
2017-04-09 20:58:40 F1.2017.Grosser.Preis.von.China.Vorberichte.Rennen.Analysen.in.Schanghai.German.HDTVRiP.x264-F1ANA
2017-04-09 20:59:04 The.Detour.S02E12.PROPER.720p.HDTV.x264-FLEET
2017-04-09 20:59:12 F1.2017.Grosser.Preis.von.China.Vorberichte.Rennen.Analysen.in.Schanghai.German.720p.HDTV.x264-F1ANA
2017-04-09 20:59:44 The.Detour.S02E12.PROPER.HDTV.x264-FLEET
2017-04-09 21:00:16 PhotoDromm.com_17.03.06.Yasmin.Oceanic.XXX.IMAGESET-GAGBALL
2017-04-09 21:00:55 PhotoDromm.com_17.03.08.Margot.Heat.Wave.II.XXX.IMAGESET-GAGBALL
2017-04-09 21:01:01 Historien.Om.Danmark.S01E02.DANiSH.720p.HDTV.x264-DiViSiON
2017-04-09 21:03:03 Toy.Story.3.La.Grande.Fuga.2010.iTALiAN.iNTERNAL.720p.HDTV.x264-iDiB
2017-04-09 21:03:42 Toy.Story.3.La.Grande.Fuga.2010.iTALiAN.iNTERNAL.HDTV.x264-iDiB
2017-04-09 21:06:50 Prison.Break.S05E00.Resurrection.HDTV.x264-TURBO
2017-04-09 21:06:51 Prison.Break.S05E00.Resurrection.720p.HDTV.x264-TURBO
2017-04-09 21:07:09 Prison.Break.S05E00.Resurrection.1080p.HDTV.H264-TURBO
2017-04-09 21:07:49 Allsvenskan.2017.Sirius.vs.Goteborg.SWEDiSH.720p.HDTV.x264-PRiNCE
2017-04-09 21:09:23 Blunt.Talk.S02E01.FRENCH.720p.HDTV.x264-SH0W
2017-04-09 21:10:04 Historien.Om.Danmark.S01E02.DANiSH.HDTV.x264-RCDiVX
2017-04-09 21:10:59 PhotoDromm.com_17.03.10.Amanda.Spring.Training.XXX.IMAGESET-GAGBALL
2017-04-09 21:11:16 Blunt.Talk.S02E01.FRENCH.HDTV.x264-DEAL
2017-04-09 21:12:01 Die.Farben.Indiens.-.Geschichte.des.Subkontinents.S01E02.Eine.Kultur.ensteht.GERMAN.DOKU.DVDRiP.x264-iMPRESSiONS
2017-04-09 21:13:09 PhotoDromm.com_17.03.12.Maria.Training.Day.II.XXX.IMAGESET-GAGBALL
2017-04-09 21:13:16 Die.Farben.Indiens.-.Geschichte.des.Subkontinents.S01E03.Gewuerze.und.Seide.GERMAN.DOKU.DVDRiP.x264-iMPRESSiONS
2017-04-09 21:14:19 Penthouse.16.08.29.April.O.Neil.in.Color.Pop.XXX.1080p.MP4-GUSH
2017-04-09 21:14:31 Die.Farben.Indiens.-.Geschichte.des.Subkontinents.S01E04.Das.goldene.Zeitalter.GERMAN.DOKU.DVDRiP.x264-iMPRESSiONS
2017-04-09 21:15:17 PhotoDromm.com_17.03.14.Nici.Natural.Born.Top.Model.XXX.IMAGESET-GAGBALL
2017-04-09 21:15:52 Die.Farben.Indiens.-.Geschichte.des.Subkontinents.S01E05.Die.neuen.Herrscher.GERMAN.DOKU.DVDRiP.x264-iMPRESSiONS
2017-04-09 21:16:50 Formel.1.2017.-.China.Shanghai.Rennen.German.1080p.HDTV.x264-UTOPiA
2017-04-09 21:17:39 PhotoDromm.com_17.03.16.Victoria.Angel.Personal.Disclosures.XXX.IMAGESET-GAGBALL
2017-04-09 21:17:46 Lil_Santana_Ft._El_Sica-Afrenta-WEB-SP-2017-FMT_INT
2017-04-09 21:18:00 Die.Farben.Indiens.-.Geschichte.des.Subkontinents.S01E06.Kampf.fuer.die.Unabhaengigkeit.GERMAN.DOKU.DVDRiP.x264-iMPRESSiONS
2017-04-09 21:18:32 Formel.1.2017.-.China.Shanghai.2.Freies.Training.German.1080p.HDTV.x264-UTOPiA
2017-04-09 21:18:43 Ultima_Thule-Vingslag-WEB-SE-2017-I_KnoW_INT
2017-04-09 21:19:04 Delirious-Calla-WEB-SP-2017-FMT_INT
2017-04-09 21:19:18 Ultima_Thule-Vingslag-WEB-SE-2017
2017-04-09 21:19:49 Nejo_Ft._Jamby_Myke_Towers_Tali-Activo-WEB-SP-2017-FMT_INT
2017-04-09 21:19:53 Czas.Honoru.Powstanie.S01E10.PL.iNT.DVDRiP.x264-N0L
2017-04-09 21:20:10 Carlitos_Rossy-Muy_Debil-WEB-SP-2017-FMT_INT
2017-04-09 21:20:45 Farscape.Verschollen.im.All.S03.DiSC.4.DUAL.COMPLETE.BLURAY-iFPD
2017-04-09 21:20:47 Ultima_Thule-Vingslag-WEB-SE-2017-I_KnoW
2017-04-09 21:21:09 PhotoDromm.com_17.03.18.Anastasia.Warm.Sensations.II.XXX.IMAGESET-GAGBALL
2017-04-09 21:21:57 Germanys.Next.Topmodel.S12E06.German.WS.HDTV.x264-HOLiDAY
2017-04-09 21:22:59 PhotoDromm.com_17.03.20.Charlotta.Eolian.Views.II.XXX.IMAGESET-GAGBALL
2017-04-09 21:23:11 Germanys.Next.Topmodel.S12E06.German.WS.720p.HDTV.x264-HOLiDAY
2017-04-09 21:24:00 Mobile.Suit.Gundam.Unicorn.Re.0096.E14.DUBBED.720p.HDTV.x264-W4F
2017-04-09 21:24:29 Mobile.Suit.Gundam.Unicorn.Re.0096.E14.DUBBED.HDTV.x264-W4F
2017-04-09 21:24:43 PhotoDromm.com_17.03.22.Yasmin.Oceanic.II.XXX.IMAGESET-GAGBALL
2017-04-09 21:25:24 Germanys.Next.Topmodel.S12E06.German.WS.1080p.HDTV.x264-HOLiDAY
2017-04-09 21:28:05 Drifters.E01.SUBFRENCH.720p.HDTV.x264-AMB3R
2017-04-09 21:28:28 PhotoDromm.com_17.03.24.Sophie.Braces.XXX.IMAGESET-GAGBALL
2017-04-09 21:28:34 Drifters.E01.SUBFRENCH.HDTV.x264-AMB3R
2017-04-09 21:29:27 Drifters.E02.SUBFRENCH.720p.HDTV.x264-AMB3R
2017-04-09 21:29:53 Drifters.E02.SUBFRENCH.HDTV.x264-AMB3R
2017-04-09 21:30:16 Sommaren.Med.Slakten.S01E05.SWEDiSH.720p.HDTV.x264-xD2V
2017-04-09 21:30:41 Drifters.E03.SUBFRENCH.720p.HDTV.x264-AMB3R
2017-04-09 21:30:58 Drifters.E03.SUBFRENCH.HDTV.x264-AMB3R
2017-04-09 21:31:44 Drifters.E04.SUBFRENCH.720p.HDTV.x264-AMB3R
2017-04-09 21:32:09 Drifters.E04.SUBFRENCH.HDTV.x264-AMB3R
2017-04-09 21:33:02 Drifters.E05.SUBFRENCH.720p.HDTV.x264-AMB3R
2017-04-09 21:33:26 Drifters.E05.SUBFRENCH.HDTV.x264-AMB3R
2017-04-09 21:33:58 The.Secret.Package.XXX.DVDRip.x264-Pr0nStarS
2017-04-09 21:34:32 Drifters.E06.SUBFRENCH.720p.HDTV.x264-AMB3R
2017-04-09 21:34:52 Drifters.E06.SUBFRENCH.HDTV.x264-AMB3R
2017-04-09 21:38:04 Sommaren.Med.Slakten.S01E05.SWEDiSH.1080p.HDTV.x264-xD2V
2017-04-09 21:38:25 Mercur.S01E06.DANiSH.720p.HDTV.x264-DiViSiON
2017-04-09 21:38:43 Superstars.2017.S01E10.SWEDISH.1080p.HDTV.x264-KAFFEREP
2017-04-09 21:38:45 PhotoDromm.com_17.03.26.Brigitta.Inside.XXX.IMAGESET-GAGBALL
2017-04-09 21:40:03 Blunt.Talk.S02E02.FRENCH.720p.HDTV.x264-SH0W
2017-04-09 21:41:05 Captain.Future.E31.REMASTERED.FRENCH.720p.BluRay.x264-SHiNiGAMi
2017-04-09 21:41:18 PhotoDromm.com_17.03.28.Kendra.In.The.Room.XXX.IMAGESET-GAGBALL
2017-04-09 21:41:48 Blunt.Talk.S02E02.FRENCH.HDTV.x264-DEAL
2017-04-09 21:41:53 Saturday.Night.Live.S42E17.Louis.C.K.1080p.HDTV.x264-CROOKS
2017-04-09 21:42:02 PhotoDromm.com_17.03.31.March.Supersize.Selection.XXX.IMAGESET-GAGBALL
2017-04-09 21:42:42 Live.PD.S01E30.720p.HDTV.x264-CRiMSON
2017-04-09 21:43:18 Live.PD.S01E30.HDTV.x264-CRiMSON
2017-04-09 21:43:38 The.Family.2016.S01E01.FRENCH.720p.HDTV.x264-SH0W
2017-04-09 21:45:16 Captain.Future.E31.REMASTERED.MULTi.1080p.BluRay.x264-SHiNiGAMi
2017-04-09 21:46:47 PhotoDromm.com_17.04.02.Mikaela.Make.It.Hot.XXX.IMAGESET-GAGBALL
2017-04-09 21:46:56 Wishes_and_Dreams_-_Live_at_Local_Heroes-SAT-04-09-2017-XDS
2017-04-09 21:48:44 The.Family.2016.S01E01.FRENCH.HDTV.x264-DEAL
2017-04-09 21:49:15 Mercur.S01E06.DANiSH.HDTV.x264-RCDiVX
2017-04-09 21:49:38 Gidseltagningen.S01E03.DANiSH.720p.HDTV.x264-DiViSiON
2017-04-09 21:49:47 PhotoDromm.com_17.04.04.Anastasia.Top.Club.XXX.IMAGESET-GAGBALL
2017-04-09 21:50:26 Tatort.E1018.Am.Ende.geht.man.nackt.GERMAN.720p.HDTV.x264-ACED
2017-04-09 21:51:16 Czas.Honoru.Powstanie.S01E11.PL.iNT.DVDRiP.x264-N0L
2017-04-09 21:52:03 Captain.Future.E31.REMASTERED.SUBFRENCH.720p.BluRay.x264-SHiNiGAMi
2017-04-09 21:53:58 Czas.Honoru.Powstanie.S01E12.PL.iNT.DVDRiP.x264-N0L
2017-04-09 21:54:14 Captain.Future.E32.REMASTERED.FRENCH.720p.BluRay.x264-SHiNiGAMi
2017-04-09 21:54:26 Teen.Wolf.S01E02.German.BDRip.x264-iNTENTiON
2017-04-09 21:54:35 Tatort.E1018.Am.Ende.geht.man.nackt.GERMAN.HDTV.x264-ACED
2017-04-09 21:55:15 Teen.Wolf.S01E03.German.BDRip.x264-iNTENTiON
2017-04-09 21:55:21 JoJos.Bizarre.Adventure.S01E24.DUBBED.720p.HDTV.x264-W4F
2017-04-09 21:56:05 Teen.Wolf.S01E04.German.BDRip.x264-iNTENTiON
2017-04-09 21:56:17 Scorpion.S03E13.FRENCH.720p.HDTV.x264-SH0W
2017-04-09 21:56:58 Teen.Wolf.S01E05.German.BDRip.x264-iNTENTiON
2017-04-09 21:56:58 Formula1.2017.Chinese.Grand.Prix.UNCUT.720p.HDTV.x264-GRiP
2017-04-09 21:57:20 Captain.Future.E32.REMASTERED.MULTi.1080p.BluRay.x264-SHiNiGAMi
2017-04-09 21:57:28 JoJos.Bizarre.Adventure.S01E24.DUBBED.HDTV.x264-W4F
2017-04-09 21:57:47 Teen.Wolf.S01E06.German.BDRip.x264-iNTENTiON
2017-04-09 21:58:38 Teen.Wolf.S01E07.German.BDRip.x264-iNTENTiON
2017-04-09 21:59:08 Mastarnas.Mastare.S09E06.SWEDiSH.720p.HDTV.x264-KAFFEREP
2017-04-09 21:59:26 Teen.Wolf.S01E08.German.BDRip.x264-iNTENTiON
2017-04-09 21:59:42 Scorpion.S03E13.FRENCH.HDTV.x264-DEAL
2017-04-09 21:59:58 Captain.Future.E32.REMASTERED.SUBFRENCH.720p.BluRay.x264-SHiNiGAMi
2017-04-09 22:00:17 Teen.Wolf.S01E09.German.BDRip.x264-iNTENTiON
2017-04-09 22:00:50 Gidseltagningen.S01E03.DANiSH.HDTV.x264-RCDiVX
2017-04-09 22:01:37 Teen.Wolf.S01E10.German.BDRip.x264-iNTENTiON
2017-04-09 22:02:28 Teen.Wolf.S01E11.German.BDRip.x264-iNTENTiON
2017-04-09 22:03:06 Sa.Mycket.Roligare.S01E03.SWEDiSH.720p.HDTV.x264-xD2V
2017-04-09 22:03:18 Teen.Wolf.S01E12.German.BDRip.x264-iNTENTiON
2017-04-09 22:04:16 Seani_B_-_BBC1Xtra-SAT-04-09-2017-TALiON
2017-04-09 22:07:20 Willkommen.bei.Mario.Barth.S15E03.GERMAN.HDTVRip.x264-MDGP
2017-04-09 22:07:42 Teen.Wolf.S01E02.German.DL.720p.BluRay.x264-iNTENTiON
2017-04-09 22:07:45 Willkommen.bei.Mario.Barth.S15E03.GERMAN.720p.HDTV.x264-MDGP
2017-04-09 22:08:08 Willkommen.bei.Mario.Barth.S15E03.GERMAN.1080p.HDTV.x264-EUROPIPE
2017-04-09 22:08:28 Farscape.Verschollen.im.All.S03.DiSC.5.DUAL.COMPLETE.BLURAY-iFPD
2017-04-09 22:09:10 Teen.Wolf.S01E03.German.DL.720p.BluRay.x264-iNTENTiON
2017-04-09 22:10:34 Teen.Wolf.S01E04.German.DL.720p.BluRay.x264-iNTENTiON
2017-04-09 22:10:59 Umek_-_Behind_the_Iron_Curtain_300-SAT-04-09-2017-TALiON
2017-04-09 22:12:00 Coyu_-_Suara_PodCats_164__Live_from_Slakthuset_(Stockholm)-SAT-04-09-2017-TALiON
2017-04-09 22:12:01 Teen.Wolf.S01E05.German.DL.720p.BluRay.x264-iNTENTiON
2017-04-09 22:12:26 Style.File.Issue.31.Fancyfile.11.2009.Scan.Magazine.eBook-AEROHOLICS
2017-04-09 22:13:00 Christian_Smith_-_Tronic_245__Incl_Oscar_L_Guestmix-SAT-04-09-2017-TALiON
2017-04-09 22:13:24 Teen.Wolf.S01E06.German.DL.720p.BluRay.x264-iNTENTiON
2017-04-09 22:13:43 Style.File.Issue.32.Kiwifile.03.2010.Scan.Magazine.eBook-AEROHOLICS
2017-04-09 22:14:00 Christian_Smith_-_Tronic_244__Incl_Umek_Guestmix-SAT-04-02-2017-TALiON
2017-04-09 22:14:49 Teen.Wolf.S01E07.German.DL.720p.BluRay.x264-iNTENTiON
2017-04-09 22:14:59 M.I.K.E._Push_-_Club_Elite_Sessions_508-SAT-04-09-2017-TALiON
2017-04-09 22:15:56 BAMN.Magazine.Issue.1.2016.Scan.eBook-AEROHOLICS
2017-04-09 22:16:00 M.A.N.D.Y._-_Get_Physical_Radio_285__Incl_Adapter_Guestmix-SAT-04-09-2017-TALiON
2017-04-09 22:16:04 Sa.Mycket.Roligare.S01E03.SWEDiSH.1080p.HDTV.x264-xD2V
2017-04-09 22:16:13 MARS.2016.S01E01.FRENCH.BDRip.BluRay.x264-DiSTURBANCE
2017-04-09 22:16:14 Teen.Wolf.S01E08.German.DL.720p.BluRay.x264-iNTENTiON
2017-04-09 22:17:00 Nicole_Moudaber_-_In_the_Mood_154__Live_from_Club_Stereo_(Montreal)-SAT-04-09-2017-TALiON
2017-04-09 22:17:13 PremiumSoft.Navicat.Data.Modeler.v2.1.12.German.Incl.Keygen.and.Patch-AMPED
2017-04-09 22:17:25 PremiumSoft.Navicat.Data.Modeler.v2.1.12.German.X64.Incl.Keygen.and.Patch-AMPED
2017-04-09 22:17:36 PremiumSoft.Navicat.Essentials.for.MariaDB.v11.2.16.German.Incl.Keygen.and.Patch-AMPED
2017-04-09 22:17:40 Teen.Wolf.S01E09.German.DL.720p.BluRay.x264-iNTENTiON
2017-04-09 22:17:49 PremiumSoft.Navicat.Essentials.for.MariaDB.v11.2.16.German.X64.Incl.Keygen.and.Patch-AMPED
2017-04-09 22:18:00 PremiumSoft.Navicat.Essentials.for.MySQL.v11.2.16.German.Incl.Keygen.and.Patch-AMPED
2017-04-09 22:18:00 Slam_-_Slam_Radio_236__Live_from_Sub_Club_(Glasgow)-SAT-04-09-2017-TALiON
2017-04-09 22:18:14 PremiumSoft.Navicat.Essentials.for.MySQL.v11.2.16.German.X64.Incl.Keygen.and.Patch-AMPED
2017-04-09 22:18:23 PremiumSoft.Navicat.Essentials.for.Oracle.v11.2.16.German.Incl.Keygen.and.Patch-AMPED
2017-04-09 22:18:35 PremiumSoft.Navicat.Essentials.for.Oracle.v11.2.16.German.X64.Incl.Keygen.and.Patch-AMPED
2017-04-09 22:18:46 PremiumSoft.Navicat.Essentials.for.PostgreSQL.v11.2.16.German.Incl.Keygen.and.Patch-AMPED
2017-04-09 22:18:57 PremiumSoft.Navicat.Essentials.for.PostgreSQL.v11.2.16.German.X64.Incl.Keygen.and.Patch-AMPED
2017-04-09 22:19:00 Scuba_-_SCB_Radio_040-SAT-04-09-2017-TALiON
2017-04-09 22:19:09 PremiumSoft.Navicat.Essentials.for.SQL.Server.v11.2.16.German.Incl.Keygen.and.Patch-AMPED
2017-04-09 22:19:23 PremiumSoft.Navicat.Essentials.for.SQL.Server.v11.2.16.German.X64.Incl.Keygen.and.Patch-AMPED
2017-04-09 22:19:35 PremiumSoft.Navicat.Essentials.for.SQLite.v11.2.16.German.Incl.Keygen.and.Patch-AMPED
2017-04-09 22:19:46 PremiumSoft.Navicat.Essentials.for.SQLite.v11.2.16.German.X64.Incl.Keygen.and.Patch-AMPED
2017-04-09 22:19:58 PremiumSoft.Navicat.for.MariaDB.Enterprise.Edition.v11.2.16.German.Incl.Keygen.and.Patch-AMPED
2017-04-09 22:20:00 Thomas_Gold_-_Fanfare_251-SAT-04-08-2017-TALiON
2017-04-09 22:20:07 Teen.Wolf.S01E10.German.DL.720p.BluRay.x264-iNTENTiON
2017-04-09 22:20:08 PremiumSoft.Navicat.for.MariaDB.Enterprise.Edition.v11.2.16.German.X64.Incl.Keygen.and.Patch-AMPED
2017-04-09 22:20:20 PremiumSoft.Navicat.for.MySQL.Enterprise.Edition.v11.2.16.German.Incl.Keygen.and.Patch-AMPED
2017-04-09 22:20:31 PremiumSoft.Navicat.for.MySQL.Enterprise.Edition.v11.2.16.German.X64.Incl.Keygen.and.Patch-AMPED
2017-04-09 22:20:43 PremiumSoft.Navicat.for.Oracle.Enterprise.Edition.v11.2.16.German.Incl.Keygen.and.Patch-AMPED
2017-04-09 22:20:55 PremiumSoft.Navicat.for.Oracle.Enterprise.Edition.v11.2.16.German.X64.Incl.Keygen.and.Patch-AMPED
2017-04-09 22:21:00 Steve_Aoki_-_Aokis_House_271-SAT-04-09-2017-TALiON
2017-04-09 22:21:09 PremiumSoft.Navicat.for.PostgreSQL.Enterprise.Edition.v11.2.16.German.Incl.Keygen.and.Patch-AMPED
2017-04-09 22:21:19 PremiumSoft.Navicat.for.PostgreSQL.Enterprise.Edition.v11.2.16.German.X64.Incl.Keygen.and.Patch-AMPED
2017-04-09 22:21:32 PremiumSoft.Navicat.for.SQL.Server.Enterprise.Edition.v11.2.16.German.Incl.Keygen.and.Patch-AMPED
2017-04-09 22:21:32 Teen.Wolf.S01E11.German.DL.720p.BluRay.x264-iNTENTiON
2017-04-09 22:21:42 PremiumSoft.Navicat.for.SQL.Server.Enterprise.Edition.v11.2.16.German.X64.Incl.Keygen.and.Patch-AMPED
2017-04-09 22:21:55 PremiumSoft.Navicat.for.SQLite.Enterprise.Edition.v11.2.16.German.Incl.Keygen.and.Patch-AMPED
2017-04-09 22:22:00 MAKJ_-_Revolution_Radio-SAT-04-09-2017-TALiON
2017-04-09 22:22:07 PremiumSoft.Navicat.for.SQLite.Enterprise.Edition.v11.2.16.German.X64.Incl.Keygen.and.Patch-AMPED
2017-04-09 22:22:20 PremiumSoft.Navicat.Premium.Edition.v11.2.16.German.Incl.Keygen.and.Patch-AMPED
2017-04-09 22:22:31 M.I.K.E._Push_-_Club_Elite_Sessions_508-SAT-04-09-2017-TALiONance
2017-04-09 22:22:56 Teen.Wolf.S01E12.German.DL.720p.BluRay.x264-iNTENTiON
2017-04-09 22:23:00 Borgore_-_The_Borgore_Show-SAT-04-09-2017-TALiON
2017-04-09 22:23:47 MARS.2016.S01E01.DiRFiX.FRENCH.BDRip.x264-DiSTURBANCE
2017-04-09 22:23:58 Borgeous_-_House_of_Borgeous_111-SAT-04-09-2017-TALiON
2017-04-09 22:24:02 MARS.2016.S01E02.FRENCH.BDRip.x264-DiSTURBANCE
2017-04-09 22:24:18 MARS.2016.S01E03.FRENCH.BDRip.x264-DiSTURBANCE
2017-04-09 22:24:20 PremiumSoft.Navicat.Premium.Edition.v11.2.16.German.X64.Incl.Keygen.and.Patch-AMPED
2017-04-09 22:24:58 Roger_Shah_-_Magic_Island_464-SAT-04-08-2017-TALiON
2017-04-09 22:25:00 MARS.2016.S01E01.FRENCH.720p.BluRay.x264-DiSTURBANCE
2017-04-09 22:25:23 MARS.2016.S01E02.FRENCH.720p.BluRay.x264-DiSTURBANCE
2017-04-09 22:25:47 MARS.2016.S01E03.FRENCH.720p.BluRay.x264-DiSTURBANCE
2017-04-09 22:25:59 David_Penn_-_Urbana_321-SAT-04-08-2017-TALiON
2017-04-09 22:26:17 MARS.2016.S01E01.MULTi.1080p.BluRay.x264-DiSTURBANCE
2017-04-09 22:26:29 The.Family.2016.S01E02.FRENCH.720p.HDTV.x264-SH0W
2017-04-09 22:26:43 MARS.2016.S01E02.MULTi.1080p.BluRay.x264-DiSTURBANCE
2017-04-09 22:26:46 PremiumSoft.Navicat.Premium.Essentials.v11.2.16.German.Incl.Keygen.and.Patch-AMPED
2017-04-09 22:26:56 PremiumSoft.Navicat.Premium.Essentials.v11.2.16.German.X64.Incl.Keygen.and.Patch-AMPED
2017-04-09 22:27:09 PremiumSoft.Navicat.Report.Viewer.v3.2.8.German.Incl.Keygen.and.Patch-AMPED
2017-04-09 22:27:20 PremiumSoft.Navicat.Report.Viewer.v3.2.8.German.X64.Incl.Keygen.and.Patch-AMPED
2017-04-09 22:27:40 MARS.2016.S01E03.MULTi.1080p.BluRay.x264-DiSTURBANCE
2017-04-09 22:27:59 Andi.Mack.S01E01.720p.HDTV.x264-W4F
2017-04-09 22:28:01 Dave_Clarke_-_White_Noise_588-SAT-04-09-2017-TALiON
2017-04-09 22:29:16 Andi.Mack.S01E01.HDTV.x264-W4F
2017-04-09 22:29:43 Stanton_Moore-All_Kooked_Out-(FCCD002)-WEB-1998-MOHAWK
2017-04-09 22:30:37 The.Family.2016.S01E01.FRENCH.1080p.HDTV.x264-Ryotox
2017-04-09 22:31:17 The.Family.2016.S01E02.FRENCH.HDTV.x264-DEAL
2017-04-09 22:32:20 Stanton_Moore-Conversations-(RPF1406)-WEB-2014-MOHAWK
2017-04-09 22:33:41 Stanton_Moore-Groove_Alchemy-WEB-2010-MOHAWK
2017-04-09 22:36:15 Sam.Was.Here.2016.COMPLETE.FR.BLURAY-4FR
2017-04-09 22:36:39 DJ_Revolution-One_Dub_Plate_At_A_Time_A_History_of_Soulspazm_(Mixed_by_DJ_Revolution)-WEB-2009-SOUNDz_iNT
2017-04-09 22:37:00 DJ_Skizz-BQE_(Brooklyn-Queens_Experience)-WEB-2013-SOUNDz_iNT
2017-04-09 22:37:19 DJ_Skizz-Kings_From_Queens_Album-WEB-2012-SOUNDz_iNT
2017-04-09 22:37:40 DJ_Skizz-Triboro_Thoro-WEB-2013-SOUNDz
2017-04-09 22:37:59 DJ_Skizz_and_Da_Villins-llamas-WEB-2016-SOUNDz
2017-04-09 22:38:17 DJ_Skizz_feat_Cormega_Inspectah_Deck_Roc_Marciano_Sadat_X_Lord_Jamar-Industry_Remix-WEB-2016-SOUNDz
2017-04-09 22:38:46 DJ_Skizz_with_Lil_Fame_and_Ill_Bill-Vio-Lence-WEB-2013-SOUNDz
2017-04-09 22:39:04 Da_Villins_and_DJ_Skizz-Cashmere_Dice-WEB-2017-SOUNDz
2017-04-09 22:40:21 Scorpion.S03E14.FRENCH.720p.HDTV.x264-SH0W
2017-04-09 22:43:14 Lumidee-H.O.T.Y._(Hold_On_To_You)-DDC-720p-x264-2014-ZViD
2017-04-09 22:45:29 Dragon.Ball.Z.Kai.S05E14.DUBBED.720p.HDTV.x264-W4F
2017-04-09 22:46:16 Dragon.Ball.Z.Kai.S05E14.DUBBED.HDTV.x264-W4F
2017-04-09 22:46:31 Lupe_Fiasco_ft._Ed_Sheeran-Old_School_Love_(Funkymix_Remix)-DDC-720p-x264-2013-ZViD
2017-04-09 22:46:52 M.I.A.-Y.A.L.A._(Bro_Safari_And_Valentino_Khan_Remix)-DDC-720p-x264-2013-ZViD
2017-04-09 22:47:05 Dragon.Ball.Z.Kai.S05E14.DUBBED.1080p.HDTV.x264-W4F
2017-04-09 22:47:12 Mack_Wilds-Own_It_(Funkymix_Remix)-DDC-720p-x264-2013-ZViD
2017-04-09 22:47:33 MAGIC-Rude_(Funkymix_Remix)-DDC-720p-x264-2013-ZViD
2017-04-09 22:47:35 Attack.on.Titan.S02E02.1080p.WEB.x264-ANiURL
2017-04-09 22:47:49 Major_Lazer_ft._RDX_And_Moska-Lose_Yourself-DDC-720p-x264-2014-ZViD
2017-04-09 22:48:05 Mel_B-For_Once_In_My_Life_(Ultimix_Remix)-DDC-720p-x264-2013-ZViD
2017-04-09 22:48:27 Scorpion.S03E14.FRENCH.HDTV.x264-DEAL
2017-04-09 22:48:30 Midnight_Red-Hell_Yeah_(Ultimix_Remix)-DDC-720p-x264-2012-ZViD
2017-04-09 22:48:42 Envoy-Kiss_Fresh-DAB-04-08-2017-z0ne
2017-04-09 22:48:49 Mike_Hawkins-Soldiers-DDC-720p-x264-2014-ZViD
2017-04-09 22:48:57 Philip_George-Kiss_Fresh-DAB-04-08-2017-z0ne
2017-04-09 22:49:08 Attack.on.Titan.S02E02.720p.WEB.x264-ANiURL
2017-04-09 22:49:09 Mike_Posner-My_Light-DDC-720p-x264-2014-ZViD
2017-04-09 22:49:28 Mike_T-Julio_(La_Del_Pollo)_(Lyric_Video)-ES-DDC-720p-x264-2014-ZViD
2017-04-09 22:49:30 VA-Masterplan-DAB-04-08-2017-z0ne
2017-04-09 22:49:48 Moby-Saints-DDC-720p-x264-2014-ZViD
2017-04-09 22:50:21 Hunter.X.Hunter.2011.S01E46.DUBBED.720p.HDTV.x264-W4F
2017-04-09 22:50:39 Attack.on.Titan.S02E02.WEB.x264-ANiURL
2017-04-09 22:50:40 Hunter.X.Hunter.2011.S01E46.DUBBED.HDTV.x264-W4F
2017-04-09 22:52:11 Bang.Dream.S01E11.1080p.WEB.x264-ANiURL
2017-04-09 22:53:43 Bang.Dream.S01E11.720p.WEB.x264-ANiURL
2017-04-09 22:55:16 Bang.Dream.S01E11.WEB.x264-ANiURL
2017-04-09 22:56:48 Berserk.2016.E12.5.1080p.WEB.x264-ANiURL
2017-04-09 22:57:44 Vera.S07E04.The.Blanket.Mire.720p.HDTV.x264-ORGANiC
2017-04-09 22:58:28 Berserk.2016.E12.5.720p.WEB.x264-ANiURL
2017-04-09 22:58:32 Master.and.Commander.Bis.ans.Ende.der.Welt.2003.German.DL.1080p.BluRay.AVC.REPACK-SAViOURHD
2017-04-09 22:59:26 Vera.S07E04.The.Blanket.Mire.HDTV.x264-ORGANiC
2017-04-09 22:59:37 Line.of.Duty.S04E03.720p.HDTV.x264-ORGANiC
2017-04-09 22:59:39 Line.of.Duty.S04E03.720p.HDTV.x264-FoV
2017-04-09 23:00:20 Berserk.2016.E12.5.WEB.x264-ANiURL
2017-04-09 23:00:45 Line.of.Duty.S04E03.HDTV.x264-ORGANiC
2017-04-09 23:01:47 Berserk.2016.E13.1080p.WEB.x264-ANiURL
2017-04-09 23:03:22 Berserk.2016.E13.720p.WEB.x264-ANiURL
2017-04-09 23:04:54 Berserk.2016.E13.WEB.x264-ANiURL
2017-04-09 23:06:26 Berserk.2016.E14.1080p.WEB.x264-ANiURL
2017-04-09 23:07:58 Berserk.2016.E14.720p.WEB.x264-ANiURL
2017-04-09 23:08:11 Penthouse.16.08.28.Gaia.in.Unfettered.Fucking.XXX.1080p.MP4-GUSH
2017-04-09 23:08:26 Gift.Vid.Forsta.Ogonkastet.S03E03.SWEDiSH.720p.HDTV.x264-KAFFEREP
2017-04-09 23:09:31 Berserk.2016.E14.WEB.x264-ANiURL
2017-04-09 23:11:03 Clockwork.Planet.S01E01.1080p.WEB.x264-ANiURL
2017-04-09 23:12:28 Bates.Motel.S05E07.FRENCH.720p.HDTV.x264-SH0W
2017-04-09 23:12:35 Clockwork.Planet.S01E01.720p.WEB.x264-ANiURL
2017-04-09 23:14:05 Clockwork.Planet.S01E01.WEB.x264-ANiURL
2017-04-09 23:14:48 Min.Hemlighet.S02E03.720p.SWEDiSH.WEB.h264-SAAB
2017-04-09 23:15:56 Min.Hemlighet.S02E04.720p.SWEDiSH.WEB.h264-SAAB
2017-04-09 23:16:43 Bates.Motel.S05E07.FRENCH.HDTV.x264-DEAL
2017-04-09 23:16:52 Min.Hemlighet.S02E22.720p.SWEDiSH.WEB.h264-SAAB
2017-04-09 23:17:50 Como.Acabar.Sin.Tu.Jefe.2.2014.EXTENDED.SPANiSH.BDRip.x264-TORO
2017-04-09 23:18:02 PhotoDromm.com_17.04.06.Klarissa.West.Side.Beach.XXX.IMAGESET-GAGBALL
2017-04-09 23:18:52 Como.Acabar.Sin.Tu.Jefe.2.2014.SPANiSH.BDRip.x264-TORO
2017-04-09 23:20:21 Como.Acabar.Sin.Tu.Jefe.2.2014.EXTENDED.SPANiSH.MULTi.720p.BluRay.x264-TORO
2017-04-09 23:20:54 PhotoDromm.com_17.04.08.Yasmin.Red.Alert.XXX.IMAGESET-GAGBALL
2017-04-09 23:23:09 Como.Acabar.Sin.Tu.Jefe.2.2014.EXTENDED.SPANiSH.MULTi.1080p.BluRay.x264-TORO
2017-04-09 23:23:12 Power.Rangers.2017.TS.MD.GERMAN.x264-SPECTRE
2017-04-09 23:25:08 VA_-_The_Early_Years_Of_Italo_Disco_Vol_1-(BCD_8041)-WEB-2017-ZzZz
2017-04-09 23:25:13 Como.Acabar.Sin.Tu.Jefe.2.2014.SPANiSH.MULTi.1080p.BluRay.x264-TORO
2017-04-09 23:26:23 Law.and.Order.SVU.S18E11.FRENCH.720p.HDTV.x264-SH0W
2017-04-09 23:29:56 UFC.210.REPACK.1080p.HDTV.x264-VERUM
2017-04-09 23:31:04 Law.and.Order.SVU.S18E11.FRENCH.HDTV.x264-DEAL
2017-04-09 23:32:15 Spende_Deine_Zeit-Have_A_Say-2013-NOiR
2017-04-09 23:38:03 Murder.Comes.to.Town.S04E03.HDTV.x264-W4F
2017-04-09 23:39:27 Murder.Comes.to.Town.S04E03.720p.HDTV.x264-W4F
2017-04-09 23:40:47 Murder.Comes.to.Town.S04E04.HDTV.x264-W4F
2017-04-09 23:42:17 Murder.Comes.to.Town.S04E04.720p.HDTV.x264-W4F
2017-04-09 23:43:38 Murder.Comes.to.Town.S04E05.HDTV.x264-W4F
2017-04-09 23:45:07 Murder.Comes.to.Town.S04E05.720p.HDTV.x264-W4F
2017-04-09 23:46:49 Live.PD.S01E00.Live.PD.Rewind.Number.5.720p.HDTV.x264-W4F
2017-04-09 23:48:03 Live.PD.S01E00.Live.PD.Rewind.Number.5.HDTV.x264-W4F
2017-04-09 23:49:13 Line.of.Duty.S04E03.1080p.HDTV.x264-MTB
2017-04-09 23:49:14 Newsreaders.S01D1.COMPLETE.NTSC.DVDR-JFKDVD
2017-04-09 23:49:24 Detective.US.S01E01.HDTV.x264-W4F
2017-04-09 23:50:07 Wildest.Europe.S01E04.Forests.and.Woodlands.1080p.WEB.h264-MOROSE
2017-04-09 23:50:53 Detective.US.S01E01.720p.HDTV.x264-W4F
2017-04-09 23:51:29 Bates.Motel.S05E07.FRENCH.1080p.HDTV.x264-SH0W
2017-04-09 23:52:07 Real.Detective.S02E05.HDTV.x264-W4F
2017-04-09 23:53:37 Real.Detective.S02E05.720p.HDTV.x264-W4F
2017-04-09 23:54:37 The.Suffering.2016.COMPLETE.PAL.DVDR-WaLMaRT
2017-04-09 23:54:57 Real.Detective.S02E06.HDTV.x264-W4F
2017-04-09 23:56:33 Real.Detective.S02E06.720p.HDTV.x264-W4F
2017-04-09 23:57:49 Naruto.Shippuden.S07E10.DUBBED.720p.HDTV.x264-W4F
2017-04-09 23:59:02 TUTSPLUS_PROTOTYPING_AN_APP_WITH_ADOBE_XD_TUTORIAL-kEISO
2017-04-09 23:59:13 Naruto.Shippuden.S07E10.DUBBED.HDTV.x264-W4F